<?xml version="1.0" encoding="UTF-8" standalone="no" ?>
<gpx xmlns="http://www.topografix.com/GPX/1/1" xmlns:xsi="http://www.w3.org/2001/XMLSchema-instance" xsi:schemaLocation="http://www.topografix.com/GPX/1/1 http://www.topografix.com/GPX/1/1/gpx.xsd" version="1.1" creator="VisuGPX - https://www.visugpx.com">
  <metadata>
    <name>137_Circuit 55 km Les Herbiers_Les Herbiers édité par cth85.com</name>
    <desc><![CDATA[Circuit de 69 km passant par:
Les Herbiers
D23, D48 Mouchamps
Saint Vincent Sterlanges via la tranchais (ancienne voie ferrée)
D39 Saint Germain de Prinçay
D39 Sigournais
Saint Mars des Prés
D949B Chantonnay
D98 Sainte Cécile par la marzelle
D48 direction Mouchamps
Vendrennes
D53 Mesnard la Barotière
D11 Les Herbiers]]></desc>
  </metadata>
  <trk>
    <name><![CDATA[55_137_cth85.com]]></name>
    <desc><![CDATA[]]></desc>
    <trkseg>
      <trkpt lat="46.86298" lon="-1.00644">
        <ele>117.3</ele>
        <time>2025-02-17T12:31:35.000Z</time>
        <extensions>
          <visugpx:TrkExtension xmlns:visugpx="https://www.visugpx.com/editgpx/">
            <visugpx:node>11</visugpx:node>
            </visugpx:TrkExtension>
        </extensions>
      </trkpt>
      <trkpt lat="46.86291" lon="-1.00651">
        <ele>117.6</ele>
        <time>2025-02-17T12:31:37.154Z</time>
      </trkpt>
      <trkpt lat="46.86247" lon="-1.00676">
        <ele>116.3</ele>
        <time>2025-02-17T12:31:43.366Z</time>
      </trkpt>
      <trkpt lat="46.86145" lon="-1.00725">
        <ele>115.3</ele>
        <time>2025-02-17T12:32:00.135Z</time>
      </trkpt>
      <trkpt lat="46.86118" lon="-1.00746">
        <ele>115.2</ele>
        <time>2025-02-17T12:32:05.173Z</time>
      </trkpt>
      <trkpt lat="46.8607" lon="-1.00796">
        <ele>114</ele>
        <time>2025-02-17T12:32:13.524Z</time>
      </trkpt>
      <trkpt lat="46.86002" lon="-1.00888">
        <ele>113.1</ele>
        <time>2025-02-17T12:32:27.913Z</time>
      </trkpt>
      <trkpt lat="46.85955" lon="-1.00965">
        <ele>112.8</ele>
        <time>2025-02-17T12:32:39.434Z</time>
      </trkpt>
      <trkpt lat="46.85959" lon="-1.00976">
        <ele>113</ele>
        <time>2025-02-17T12:32:41.275Z</time>
      </trkpt>
      <trkpt lat="46.85952" lon="-1.00982">
        <ele>113</ele>
        <time>2025-02-17T12:32:42.653Z</time>
      </trkpt>
      <trkpt lat="46.85948" lon="-1.00974">
        <ele>113</ele>
        <time>2025-02-17T12:32:43.804Z</time>
      </trkpt>
      <trkpt lat="46.8589" lon="-1.00949">
        <ele>113</ele>
        <time>2025-02-17T12:32:54.076Z</time>
      </trkpt>
      <trkpt lat="46.85859" lon="-1.00937">
        <ele>112</ele>
        <time>2025-02-17T12:32:58.243Z</time>
      </trkpt>
      <trkpt lat="46.85845" lon="-1.0094">
        <ele>112</ele>
        <time>2025-02-17T12:33:00.646Z</time>
      </trkpt>
      <trkpt lat="46.85833" lon="-1.00917">
        <ele>112</ele>
        <time>2025-02-17T12:33:04.007Z</time>
      </trkpt>
      <trkpt lat="46.8582" lon="-1.00904">
        <ele>112</ele>
        <time>2025-02-17T12:33:06.682Z</time>
      </trkpt>
      <trkpt lat="46.85688" lon="-1.00825">
        <ele>111</ele>
        <time>2025-02-17T12:33:29.381Z</time>
      </trkpt>
      <trkpt lat="46.85576" lon="-1.0072">
        <ele>109</ele>
        <time>2025-02-17T12:33:49.105Z</time>
      </trkpt>
      <trkpt lat="46.85483" lon="-1.00653">
        <ele>107</ele>
        <time>2025-02-17T12:34:03.929Z</time>
      </trkpt>
      <trkpt lat="46.85372" lon="-1.00599">
        <ele>107.8</ele>
        <time>2025-02-17T12:34:25.167Z</time>
      </trkpt>
      <trkpt lat="46.85289" lon="-1.0057">
        <ele>109</ele>
        <time>2025-02-17T12:34:41.840Z</time>
      </trkpt>
      <trkpt lat="46.85265" lon="-1.00555">
        <ele>108.5</ele>
        <time>2025-02-17T12:34:45.577Z</time>
      </trkpt>
      <trkpt lat="46.8508" lon="-1.00423">
        <ele>111</ele>
        <time>2025-02-17T12:35:25.007Z</time>
      </trkpt>
      <trkpt lat="46.85074" lon="-1.00424">
        <ele>111.1</ele>
        <time>2025-02-17T12:35:26.219Z</time>
      </trkpt>
      <trkpt lat="46.85058" lon="-1.00411">
        <ele>111</ele>
        <time>2025-02-17T12:35:29.173Z</time>
      </trkpt>
      <trkpt lat="46.85013" lon="-1.00393">
        <ele>112.6</ele>
        <time>2025-02-17T12:35:40.578Z</time>
      </trkpt>
      <trkpt lat="46.84996" lon="-1.00386">
        <ele>113.2</ele>
        <time>2025-02-17T12:35:44.880Z</time>
      </trkpt>
      <trkpt lat="46.84939" lon="-1.00377">
        <ele>114.5</ele>
        <time>2025-02-17T12:35:57.162Z</time>
      </trkpt>
      <trkpt lat="46.84859" lon="-1.00381">
        <ele>115.3</ele>
        <time>2025-02-17T12:36:12.162Z</time>
      </trkpt>
      <trkpt lat="46.84804" lon="-1.00395">
        <ele>116</ele>
        <time>2025-02-17T12:36:22.899Z</time>
      </trkpt>
      <trkpt lat="46.84638" lon="-1.00452">
        <ele>114</ele>
        <time>2025-02-17T12:36:48.916Z</time>
      </trkpt>
      <trkpt lat="46.84587" lon="-1.00465">
        <ele>112.8</ele>
        <time>2025-02-17T12:36:56.084Z</time>
      </trkpt>
      <trkpt lat="46.84526" lon="-1.00469">
        <ele>112.9</ele>
        <time>2025-02-17T12:37:06.621Z</time>
      </trkpt>
      <trkpt lat="46.84504" lon="-1.00481">
        <ele>113</ele>
        <time>2025-02-17T12:37:10.776Z</time>
      </trkpt>
      <trkpt lat="46.84497" lon="-1.00493">
        <ele>113</ele>
        <time>2025-02-17T12:37:12.609Z</time>
      </trkpt>
      <trkpt lat="46.84483" lon="-1.00496">
        <ele>113.1</ele>
        <time>2025-02-17T12:37:15.184Z</time>
      </trkpt>
      <trkpt lat="46.8447" lon="-1.0048">
        <ele>113.7</ele>
        <time>2025-02-17T12:37:19.388Z</time>
      </trkpt>
      <trkpt lat="46.84448" lon="-1.00466">
        <ele>114</ele>
        <time>2025-02-17T12:37:24.001Z</time>
      </trkpt>
      <trkpt lat="46.84422" lon="-1.00463">
        <ele>114</ele>
        <time>2025-02-17T12:37:28.431Z</time>
      </trkpt>
      <trkpt lat="46.83313" lon="-1.00379">
        <ele>125.6</ele>
        <time>2025-02-17T12:40:57.482Z</time>
      </trkpt>
      <trkpt lat="46.83309" lon="-1.00389">
        <ele>126</ele>
        <time>2025-02-17T12:40:59.845Z</time>
      </trkpt>
      <trkpt lat="46.83012" lon="-1.00659">
        <ele>121.8</ele>
        <time>2025-02-17T12:41:53.080Z</time>
      </trkpt>
      <trkpt lat="46.82994" lon="-1.00682">
        <ele>121.8</ele>
        <time>2025-02-17T12:41:57.141Z</time>
      </trkpt>
      <trkpt lat="46.82884" lon="-1.00894">
        <ele>122</ele>
        <time>2025-02-17T12:42:28.389Z</time>
      </trkpt>
      <trkpt lat="46.82854" lon="-1.0094">
        <ele>121.2</ele>
        <time>2025-02-17T12:42:34.653Z</time>
      </trkpt>
      <trkpt lat="46.82681" lon="-1.01146">
        <ele>118.6</ele>
        <time>2025-02-17T12:43:08.724Z</time>
      </trkpt>
      <trkpt lat="46.82628" lon="-1.01198">
        <ele>120.1</ele>
        <time>2025-02-17T12:43:22.524Z</time>
      </trkpt>
      <trkpt lat="46.82559" lon="-1.01232">
        <ele>120</ele>
        <time>2025-02-17T12:43:34.733Z</time>
      </trkpt>
      <trkpt lat="46.82192" lon="-1.01391">
        <ele>121</ele>
        <time>2025-02-17T12:44:41.406Z</time>
      </trkpt>
      <trkpt lat="46.82126" lon="-1.01434">
        <ele>120.7</ele>
        <time>2025-02-17T12:44:53.212Z</time>
      </trkpt>
      <trkpt lat="46.81768" lon="-1.01689">
        <ele>116</ele>
        <time>2025-02-17T12:45:53.940Z</time>
      </trkpt>
      <trkpt lat="46.81525" lon="-1.01949">
        <ele>117</ele>
        <time>2025-02-17T12:46:46.760Z</time>
      </trkpt>
      <trkpt lat="46.81488" lon="-1.01976">
        <ele>117.1</ele>
        <time>2025-02-17T12:46:53.950Z</time>
      </trkpt>
      <trkpt lat="46.81453" lon="-1.01977">
        <ele>117.7</ele>
        <time>2025-02-17T12:47:01.014Z</time>
      </trkpt>
      <trkpt lat="46.81355" lon="-1.01943">
        <ele>119</ele>
        <time>2025-02-17T12:47:20.460Z</time>
      </trkpt>
      <trkpt lat="46.81272" lon="-1.01947">
        <ele>119.2</ele>
        <time>2025-02-17T12:47:34.896Z</time>
      </trkpt>
      <trkpt lat="46.81194" lon="-1.0196">
        <ele>120</ele>
        <time>2025-02-17T12:47:49.637Z</time>
      </trkpt>
      <trkpt lat="46.81152" lon="-1.01973">
        <ele>119</ele>
        <time>2025-02-17T12:47:55.576Z</time>
      </trkpt>
      <trkpt lat="46.81126" lon="-1.01992">
        <ele>119</ele>
        <time>2025-02-17T12:48:00.514Z</time>
      </trkpt>
      <trkpt lat="46.81109" lon="-1.02012">
        <ele>119</ele>
        <time>2025-02-17T12:48:04.222Z</time>
      </trkpt>
      <trkpt lat="46.81053" lon="-1.02115">
        <ele>118</ele>
        <time>2025-02-17T12:48:18.034Z</time>
      </trkpt>
      <trkpt lat="46.80956" lon="-1.0232">
        <ele>117</ele>
        <time>2025-02-17T12:48:45.467Z</time>
      </trkpt>
      <trkpt lat="46.80849" lon="-1.02623">
        <ele>115</ele>
        <time>2025-02-17T12:49:22.087Z</time>
      </trkpt>
      <trkpt lat="46.8065" lon="-1.03012">
        <ele>111.8</ele>
        <time>2025-02-17T12:50:13.759Z</time>
      </trkpt>
      <trkpt lat="46.80431" lon="-1.03469">
        <ele>111</ele>
        <time>2025-02-17T12:51:17.352Z</time>
      </trkpt>
      <trkpt lat="46.80405" lon="-1.0354">
        <ele>111</ele>
        <time>2025-02-17T12:51:26.715Z</time>
      </trkpt>
      <trkpt lat="46.80192" lon="-1.04227">
        <ele>106.8</ele>
        <time>2025-02-17T12:52:48.045Z</time>
      </trkpt>
      <trkpt lat="46.80144" lon="-1.04335">
        <ele>106.2</ele>
        <time>2025-02-17T12:53:02.100Z</time>
      </trkpt>
      <trkpt lat="46.80041" lon="-1.04535">
        <ele>106.6</ele>
        <time>2025-02-17T12:53:31.861Z</time>
      </trkpt>
      <trkpt lat="46.80005" lon="-1.04585">
        <ele>106.2</ele>
        <time>2025-02-17T12:53:39.693Z</time>
      </trkpt>
      <trkpt lat="46.79972" lon="-1.0461">
        <ele>106</ele>
        <time>2025-02-17T12:53:45.698Z</time>
      </trkpt>
      <trkpt lat="46.79769" lon="-1.04682">
        <ele>102.9</ele>
        <time>2025-02-17T12:54:16.719Z</time>
      </trkpt>
      <trkpt lat="46.79742" lon="-1.04696">
        <ele>103</ele>
        <time>2025-02-17T12:54:21.752Z</time>
      </trkpt>
      <trkpt lat="46.79507" lon="-1.04847">
        <ele>102.1</ele>
        <time>2025-02-17T12:55:03.949Z</time>
      </trkpt>
      <trkpt lat="46.79386" lon="-1.04948">
        <ele>104</ele>
        <time>2025-02-17T12:55:31.058Z</time>
      </trkpt>
      <trkpt lat="46.79313" lon="-1.05028">
        <ele>104</ele>
        <time>2025-02-17T12:55:46.561Z</time>
      </trkpt>
      <trkpt lat="46.79076" lon="-1.0531">
        <ele>101.1</ele>
        <time>2025-02-17T12:56:34.139Z</time>
      </trkpt>
      <trkpt lat="46.78989" lon="-1.05486">
        <ele>102.2</ele>
        <time>2025-02-17T12:57:01.273Z</time>
      </trkpt>
      <trkpt lat="46.78932" lon="-1.05595">
        <ele>104</ele>
        <time>2025-02-17T12:57:20.639Z</time>
      </trkpt>
      <trkpt lat="46.78892" lon="-1.05642">
        <ele>104.9</ele>
        <time>2025-02-17T12:57:31.043Z</time>
      </trkpt>
      <trkpt lat="46.78843" lon="-1.05674">
        <ele>108.3</ele>
        <time>2025-02-17T12:57:49.982Z</time>
      </trkpt>
      <trkpt lat="46.78699" lon="-1.05721">
        <ele>111.2</ele>
        <time>2025-02-17T12:58:20.571Z</time>
      </trkpt>
      <trkpt lat="46.78656" lon="-1.0574">
        <ele>110.5</ele>
        <time>2025-02-17T12:58:27.199Z</time>
      </trkpt>
      <trkpt lat="46.78489" lon="-1.05833">
        <ele>104.6</ele>
        <time>2025-02-17T12:58:50.102Z</time>
      </trkpt>
      <trkpt lat="46.78443" lon="-1.0588">
        <ele>102.9</ele>
        <time>2025-02-17T12:58:57.449Z</time>
      </trkpt>
      <trkpt lat="46.78312" lon="-1.06055">
        <ele>99</ele>
        <time>2025-02-17T12:59:22.278Z</time>
      </trkpt>
      <trkpt lat="46.78152" lon="-1.06175">
        <ele>98</ele>
        <time>2025-02-17T12:59:51.286Z</time>
      </trkpt>
      <trkpt lat="46.78088" lon="-1.06203">
        <ele>96.5</ele>
        <time>2025-02-17T13:00:00.593Z</time>
      </trkpt>
      <trkpt lat="46.7801" lon="-1.06263">
        <ele>95.8</ele>
        <time>2025-02-17T13:00:14.506Z</time>
      </trkpt>
      <trkpt lat="46.77956" lon="-1.06287">
        <ele>96.7</ele>
        <time>2025-02-17T13:00:25.754Z</time>
      </trkpt>
      <trkpt lat="46.77901" lon="-1.06278">
        <ele>93.5</ele>
        <time>2025-02-17T13:00:31.715Z</time>
      </trkpt>
      <trkpt lat="46.77849" lon="-1.06306">
        <ele>92.6</ele>
        <time>2025-02-17T13:00:39.847Z</time>
      </trkpt>
      <trkpt lat="46.77812" lon="-1.06382">
        <ele>91.6</ele>
        <time>2025-02-17T13:00:49.264Z</time>
      </trkpt>
      <trkpt lat="46.77748" lon="-1.06432">
        <ele>90</ele>
        <time>2025-02-17T13:00:59.408Z</time>
      </trkpt>
      <trkpt lat="46.7772" lon="-1.0646">
        <ele>90.5</ele>
        <time>2025-02-17T13:01:06.086Z</time>
      </trkpt>
      <trkpt lat="46.77692" lon="-1.06518">
        <ele>90.9</ele>
        <time>2025-02-17T13:01:15.032Z</time>
      </trkpt>
      <trkpt lat="46.77466" lon="-1.06778">
        <ele>86</ele>
        <time>2025-02-17T13:01:56.965Z</time>
      </trkpt>
      <trkpt lat="46.77417" lon="-1.06842">
        <ele>85</ele>
        <time>2025-02-17T13:02:06.696Z</time>
      </trkpt>
      <trkpt lat="46.77283" lon="-1.07052">
        <ele>83</ele>
        <time>2025-02-17T13:02:37.105Z</time>
      </trkpt>
      <trkpt lat="46.77248" lon="-1.07142">
        <ele>80.9</ele>
        <time>2025-02-17T13:02:46.459Z</time>
      </trkpt>
      <trkpt lat="46.77245" lon="-1.07159">
        <ele>80.3</ele>
        <time>2025-02-17T13:02:47.730Z</time>
      </trkpt>
      <trkpt lat="46.7723" lon="-1.0717">
        <ele>79.9</ele>
        <time>2025-02-17T13:02:50.098Z</time>
      </trkpt>
      <trkpt lat="46.77203" lon="-1.07203">
        <ele>78</ele>
        <time>2025-02-17T13:02:53.918Z</time>
      </trkpt>
      <trkpt lat="46.77157" lon="-1.07249">
        <ele>78</ele>
        <time>2025-02-17T13:03:03.466Z</time>
      </trkpt>
      <trkpt lat="46.77134" lon="-1.07257">
        <ele>77.2</ele>
        <time>2025-02-17T13:03:06.477Z</time>
      </trkpt>
      <trkpt lat="46.76615" lon="-1.07289">
        <ele>74.6</ele>
        <time>2025-02-17T13:04:30.681Z</time>
      </trkpt>
      <trkpt lat="46.76428" lon="-1.07283">
        <ele>71.2</ele>
        <time>2025-02-17T13:04:57.678Z</time>
      </trkpt>
      <trkpt lat="46.76268" lon="-1.07266">
        <ele>67.6</ele>
        <time>2025-02-17T13:05:20.027Z</time>
      </trkpt>
      <trkpt lat="46.76056" lon="-1.07243">
        <ele>59.2</ele>
        <time>2025-02-17T13:05:45.978Z</time>
      </trkpt>
      <trkpt lat="46.75681" lon="-1.07199">
        <ele>68.8</ele>
        <time>2025-02-17T13:07:09.149Z</time>
      </trkpt>
      <trkpt lat="46.75693" lon="-1.0727">
        <ele>67.1</ele>
        <time>2025-02-17T13:07:15.524Z</time>
      </trkpt>
      <trkpt lat="46.75675" lon="-1.07283">
        <ele>68.4</ele>
        <time>2025-02-17T13:07:22.744Z</time>
      </trkpt>
      <trkpt lat="46.75641" lon="-1.07327">
        <ele>69.9</ele>
        <time>2025-02-17T13:07:33.686Z</time>
      </trkpt>
      <trkpt lat="46.75633" lon="-1.07332">
        <ele>70.2</ele>
        <time>2025-02-17T13:07:35.818Z</time>
      </trkpt>
      <trkpt lat="46.75598" lon="-1.07333">
        <ele>71</ele>
        <time>2025-02-17T13:07:43.332Z</time>
      </trkpt>
      <trkpt lat="46.75592" lon="-1.07347">
        <ele>70.5</ele>
        <time>2025-02-17T13:07:44.668Z</time>
      </trkpt>
      <trkpt lat="46.75539" lon="-1.07413">
        <ele>66.6</ele>
        <time>2025-02-17T13:07:52.261Z</time>
      </trkpt>
      <trkpt lat="46.75475" lon="-1.07567">
        <ele>59.4</ele>
        <time>2025-02-17T13:08:05.508Z</time>
      </trkpt>
      <trkpt lat="46.75441" lon="-1.07626">
        <ele>58.7</ele>
        <time>2025-02-17T13:08:13.460Z</time>
      </trkpt>
      <trkpt lat="46.754" lon="-1.07695">
        <ele>58.2</ele>
        <time>2025-02-17T13:08:23.331Z</time>
      </trkpt>
      <trkpt lat="46.75336" lon="-1.07781">
        <ele>58.8</ele>
        <time>2025-02-17T13:08:39.134Z</time>
      </trkpt>
      <trkpt lat="46.75291" lon="-1.07818">
        <ele>63.1</ele>
        <time>2025-02-17T13:09:03.011Z</time>
      </trkpt>
      <trkpt lat="46.75229" lon="-1.07835">
        <ele>65.9</ele>
        <time>2025-02-17T13:09:20.431Z</time>
      </trkpt>
      <trkpt lat="46.75129" lon="-1.07912">
        <ele>61.8</ele>
        <time>2025-02-17T13:09:34.569Z</time>
      </trkpt>
      <trkpt lat="46.75049" lon="-1.07964">
        <ele>56.3</ele>
        <time>2025-02-17T13:09:43.710Z</time>
      </trkpt>
      <trkpt lat="46.75002" lon="-1.08012">
        <ele>53.6</ele>
        <time>2025-02-17T13:09:50.347Z</time>
      </trkpt>
      <trkpt lat="46.74974" lon="-1.08021">
        <ele>55.4</ele>
        <time>2025-02-17T13:10:00.388Z</time>
      </trkpt>
      <trkpt lat="46.7488" lon="-1.08015">
        <ele>62.9</ele>
        <time>2025-02-17T13:10:41.846Z</time>
      </trkpt>
      <trkpt lat="46.74797" lon="-1.08028">
        <ele>63.7</ele>
        <time>2025-02-17T13:10:57.423Z</time>
      </trkpt>
      <trkpt lat="46.74771" lon="-1.08026">
        <ele>63</ele>
        <time>2025-02-17T13:11:00.923Z</time>
      </trkpt>
      <trkpt lat="46.74687" lon="-1.07999">
        <ele>60.7</ele>
        <time>2025-02-17T13:11:12.496Z</time>
      </trkpt>
      <trkpt lat="46.74675" lon="-1.07991">
        <ele>60.3</ele>
        <time>2025-02-17T13:11:14.222Z</time>
      </trkpt>
      <trkpt lat="46.74653" lon="-1.07957">
        <ele>60</ele>
        <time>2025-02-17T13:11:19.215Z</time>
      </trkpt>
      <trkpt lat="46.7461" lon="-1.07992">
        <ele>59</ele>
        <time>2025-02-17T13:11:26.196Z</time>
      </trkpt>
      <trkpt lat="46.74441" lon="-1.08063">
        <ele>59.3</ele>
        <time>2025-02-17T13:11:56.561Z</time>
      </trkpt>
      <trkpt lat="46.74356" lon="-1.08107">
        <ele>60.9</ele>
        <time>2025-02-17T13:12:14.878Z</time>
      </trkpt>
      <trkpt lat="46.74323" lon="-1.08045">
        <ele>59.2</ele>
        <time>2025-02-17T13:12:21.847Z</time>
      </trkpt>
      <trkpt lat="46.74233" lon="-1.07914">
        <ele>57.6</ele>
        <time>2025-02-17T13:12:41.097Z</time>
      </trkpt>
      <trkpt lat="46.7416" lon="-1.07786">
        <ele>61</ele>
        <time>2025-02-17T13:13:07.575Z</time>
      </trkpt>
      <trkpt lat="46.74131" lon="-1.07729">
        <ele>63.1</ele>
        <time>2025-02-17T13:13:20.808Z</time>
      </trkpt>
      <trkpt lat="46.74096" lon="-1.07623">
        <ele>62.7</ele>
        <time>2025-02-17T13:13:33.884Z</time>
      </trkpt>
      <trkpt lat="46.74013" lon="-1.07494">
        <ele>64.8</ele>
        <time>2025-02-17T13:13:58.402Z</time>
      </trkpt>
      <trkpt lat="46.73835" lon="-1.07173">
        <ele>63.1</ele>
        <time>2025-02-17T13:14:43.853Z</time>
      </trkpt>
      <trkpt lat="46.73821" lon="-1.07162">
        <ele>63.2</ele>
        <time>2025-02-17T13:14:46.724Z</time>
      </trkpt>
      <trkpt lat="46.73802" lon="-1.07157">
        <ele>63.9</ele>
        <time>2025-02-17T13:14:51.555Z</time>
      </trkpt>
      <trkpt lat="46.73779" lon="-1.07166">
        <ele>65.9</ele>
        <time>2025-02-17T13:15:02.673Z</time>
      </trkpt>
      <trkpt lat="46.73688" lon="-1.07288">
        <ele>70.3</ele>
        <time>2025-02-17T13:15:33.353Z</time>
      </trkpt>
      <trkpt lat="46.73623" lon="-1.07174">
        <ele>67.7</ele>
        <time>2025-02-17T13:15:47.156Z</time>
      </trkpt>
      <trkpt lat="46.73577" lon="-1.07072">
        <ele>65.6</ele>
        <time>2025-02-17T13:15:58.565Z</time>
      </trkpt>
      <trkpt lat="46.73504" lon="-1.06961">
        <ele>68.9</ele>
        <time>2025-02-17T13:16:23.456Z</time>
      </trkpt>
      <trkpt lat="46.73463" lon="-1.06874">
        <ele>70.2</ele>
        <time>2025-02-17T13:16:38.188Z</time>
      </trkpt>
      <trkpt lat="46.73448" lon="-1.0685">
        <ele>70.9</ele>
        <time>2025-02-17T13:16:43.453Z</time>
      </trkpt>
      <trkpt lat="46.73352" lon="-1.0674">
        <ele>70.4</ele>
        <time>2025-02-17T13:17:03.406Z</time>
      </trkpt>
      <trkpt lat="46.73271" lon="-1.06617">
        <ele>68</ele>
        <time>2025-02-17T13:17:19.952Z</time>
      </trkpt>
      <trkpt lat="46.73235" lon="-1.06575">
        <ele>66.7</ele>
        <time>2025-02-17T13:17:26.082Z</time>
      </trkpt>
      <trkpt lat="46.73206" lon="-1.06554">
        <ele>65.9</ele>
        <time>2025-02-17T13:17:30.510Z</time>
      </trkpt>
      <trkpt lat="46.73184" lon="-1.06545">
        <ele>65.2</ele>
        <time>2025-02-17T13:17:33.492Z</time>
      </trkpt>
      <trkpt lat="46.73164" lon="-1.06549">
        <ele>64.7</ele>
        <time>2025-02-17T13:17:36.252Z</time>
      </trkpt>
      <trkpt lat="46.73115" lon="-1.06585">
        <ele>65</ele>
        <time>2025-02-17T13:17:46.077Z</time>
      </trkpt>
      <trkpt lat="46.73099" lon="-1.06585">
        <ele>64.6</ele>
        <time>2025-02-17T13:17:48.261Z</time>
      </trkpt>
      <trkpt lat="46.73086" lon="-1.0657">
        <ele>64</ele>
        <time>2025-02-17T13:17:50.334Z</time>
      </trkpt>
      <trkpt lat="46.73045" lon="-1.06502">
        <ele>63.4</ele>
        <time>2025-02-17T13:17:59.980Z</time>
      </trkpt>
      <trkpt lat="46.73026" lon="-1.0646">
        <ele>63.5</ele>
        <time>2025-02-17T13:18:06.005Z</time>
      </trkpt>
      <trkpt lat="46.7302" lon="-1.06402">
        <ele>62.7</ele>
        <time>2025-02-17T13:18:11.725Z</time>
      </trkpt>
      <trkpt lat="46.73024" lon="-1.06337">
        <ele>63.6</ele>
        <time>2025-02-17T13:18:21.045Z</time>
      </trkpt>
      <trkpt lat="46.73036" lon="-1.0631">
        <ele>63.4</ele>
        <time>2025-02-17T13:18:24.491Z</time>
      </trkpt>
      <trkpt lat="46.73087" lon="-1.06247">
        <ele>65.3</ele>
        <time>2025-02-17T13:18:39.757Z</time>
      </trkpt>
      <trkpt lat="46.73096" lon="-1.06229">
        <ele>65.9</ele>
        <time>2025-02-17T13:18:43.719Z</time>
      </trkpt>
      <trkpt lat="46.73101" lon="-1.06204">
        <ele>66.5</ele>
        <time>2025-02-17T13:18:48.048Z</time>
      </trkpt>
      <trkpt lat="46.73099" lon="-1.06184">
        <ele>66.7</ele>
        <time>2025-02-17T13:18:50.765Z</time>
      </trkpt>
      <trkpt lat="46.73064" lon="-1.0608">
        <ele>68</ele>
        <time>2025-02-17T13:19:06.662Z</time>
      </trkpt>
      <trkpt lat="46.73058" lon="-1.0605">
        <ele>68.3</ele>
        <time>2025-02-17T13:19:10.844Z</time>
      </trkpt>
      <trkpt lat="46.73054" lon="-1.06003">
        <ele>68.9</ele>
        <time>2025-02-17T13:19:17.490Z</time>
      </trkpt>
      <trkpt lat="46.73051" lon="-1.05799">
        <ele>69.8</ele>
        <time>2025-02-17T13:19:42.780Z</time>
      </trkpt>
      <trkpt lat="46.73056" lon="-1.05758">
        <ele>70</ele>
        <time>2025-02-17T13:19:47.970Z</time>
      </trkpt>
      <trkpt lat="46.73106" lon="-1.05518">
        <ele>71.8</ele>
        <time>2025-02-17T13:20:20.345Z</time>
      </trkpt>
      <trkpt lat="46.73113" lon="-1.05437">
        <ele>73.1</ele>
        <time>2025-02-17T13:20:32.406Z</time>
      </trkpt>
      <trkpt lat="46.73113" lon="-1.05348">
        <ele>74</ele>
        <time>2025-02-17T13:20:44.412Z</time>
      </trkpt>
      <trkpt lat="46.73111" lon="-1.05274">
        <ele>74</ele>
        <time>2025-02-17T13:20:53.034Z</time>
      </trkpt>
      <trkpt lat="46.73125" lon="-1.05059">
        <ele>76.9</ele>
        <time>2025-02-17T13:21:23.701Z</time>
      </trkpt>
      <trkpt lat="46.73129" lon="-1.04899">
        <ele>78.6</ele>
        <time>2025-02-17T13:21:45.465Z</time>
      </trkpt>
      <trkpt lat="46.73117" lon="-1.04717">
        <ele>79</ele>
        <time>2025-02-17T13:22:07.417Z</time>
      </trkpt>
      <trkpt lat="46.73102" lon="-1.04633">
        <ele>79.7</ele>
        <time>2025-02-17T13:22:18.769Z</time>
      </trkpt>
      <trkpt lat="46.73048" lon="-1.04495">
        <ele>81.4</ele>
        <time>2025-02-17T13:22:40.397Z</time>
      </trkpt>
      <trkpt lat="46.73027" lon="-1.04465">
        <ele>82</ele>
        <time>2025-02-17T13:22:46.540Z</time>
      </trkpt>
      <trkpt lat="46.72986" lon="-1.04426">
        <ele>83</ele>
        <time>2025-02-17T13:22:56.772Z</time>
      </trkpt>
      <trkpt lat="46.72898" lon="-1.04391">
        <ele>83.9</ele>
        <time>2025-02-17T13:23:13.842Z</time>
      </trkpt>
      <trkpt lat="46.72844" lon="-1.0435">
        <ele>83.6</ele>
        <time>2025-02-17T13:23:23.717Z</time>
      </trkpt>
      <trkpt lat="46.72783" lon="-1.04271">
        <ele>83</ele>
        <time>2025-02-17T13:23:36.658Z</time>
      </trkpt>
      <trkpt lat="46.72754" lon="-1.04205">
        <ele>82.1</ele>
        <time>2025-02-17T13:23:44.509Z</time>
      </trkpt>
      <trkpt lat="46.7269" lon="-1.0402">
        <ele>79.6</ele>
        <time>2025-02-17T13:24:05.112Z</time>
      </trkpt>
      <trkpt lat="46.72628" lon="-1.03759">
        <ele>80</ele>
        <time>2025-02-17T13:24:37.933Z</time>
      </trkpt>
      <trkpt lat="46.72514" lon="-1.03339">
        <ele>85.5</ele>
        <time>2025-02-17T13:25:40.838Z</time>
      </trkpt>
      <trkpt lat="46.72393" lon="-1.02997">
        <ele>84</ele>
        <time>2025-02-17T13:26:23.338Z</time>
      </trkpt>
      <trkpt lat="46.72378" lon="-1.02942">
        <ele>84.1</ele>
        <time>2025-02-17T13:26:30.396Z</time>
      </trkpt>
      <trkpt lat="46.72376" lon="-1.02921">
        <ele>84.5</ele>
        <time>2025-02-17T13:26:33.682Z</time>
      </trkpt>
      <trkpt lat="46.72368" lon="-1.02899">
        <ele>84.7</ele>
        <time>2025-02-17T13:26:36.938Z</time>
      </trkpt>
      <trkpt lat="46.72357" lon="-1.02891">
        <ele>84.9</ele>
        <time>2025-02-17T13:26:39.384Z</time>
      </trkpt>
      <trkpt lat="46.72342" lon="-1.02883">
        <ele>85</ele>
        <time>2025-02-17T13:26:42.319Z</time>
      </trkpt>
      <trkpt lat="46.72329" lon="-1.02883">
        <ele>85</ele>
        <time>2025-02-17T13:26:44.569Z</time>
      </trkpt>
      <trkpt lat="46.72315" lon="-1.02887">
        <ele>85</ele>
        <time>2025-02-17T13:26:46.872Z</time>
      </trkpt>
      <trkpt lat="46.72286" lon="-1.02891">
        <ele>84.3</ele>
        <time>2025-02-17T13:26:50.938Z</time>
      </trkpt>
      <trkpt lat="46.72262" lon="-1.02896">
        <ele>84</ele>
        <time>2025-02-17T13:26:54.608Z</time>
      </trkpt>
      <trkpt lat="46.72211" lon="-1.02901">
        <ele>84</ele>
        <time>2025-02-17T13:27:03.313Z</time>
      </trkpt>
      <trkpt lat="46.72181" lon="-1.02905">
        <ele>84</ele>
        <time>2025-02-17T13:27:08.324Z</time>
      </trkpt>
      <trkpt lat="46.72161" lon="-1.02911">
        <ele>84</ele>
        <time>2025-02-17T13:27:11.902Z</time>
      </trkpt>
      <trkpt lat="46.72134" lon="-1.0292">
        <ele>84</ele>
        <time>2025-02-17T13:27:16.585Z</time>
      </trkpt>
      <trkpt lat="46.72106" lon="-1.0293">
        <ele>84</ele>
        <time>2025-02-17T13:27:21.539Z</time>
      </trkpt>
      <trkpt lat="46.72058" lon="-1.02949">
        <ele>84</ele>
        <time>2025-02-17T13:27:29.874Z</time>
      </trkpt>
      <trkpt lat="46.72018" lon="-1.02961">
        <ele>84</ele>
        <time>2025-02-17T13:27:36.907Z</time>
      </trkpt>
      <trkpt lat="46.71966" lon="-1.02981">
        <ele>85</ele>
        <time>2025-02-17T13:27:47.844Z</time>
      </trkpt>
      <trkpt lat="46.71946" lon="-1.02989">
        <ele>85</ele>
        <time>2025-02-17T13:27:51.449Z</time>
      </trkpt>
      <trkpt lat="46.71933" lon="-1.03">
        <ele>84.6</ele>
        <time>2025-02-17T13:27:53.517Z</time>
      </trkpt>
      <trkpt lat="46.71884" lon="-1.03052">
        <ele>82.8</ele>
        <time>2025-02-17T13:28:01.444Z</time>
      </trkpt>
      <trkpt lat="46.71788" lon="-1.03154">
        <ele>80.4</ele>
        <time>2025-02-17T13:28:18.192Z</time>
      </trkpt>
      <trkpt lat="46.71623" lon="-1.03331">
        <ele>84.1</ele>
        <time>2025-02-17T13:29:00.003Z</time>
      </trkpt>
      <trkpt lat="46.71574" lon="-1.03382">
        <ele>84</ele>
        <time>2025-02-17T13:29:10.143Z</time>
      </trkpt>
      <trkpt lat="46.71563" lon="-1.03394">
        <ele>83.9</ele>
        <time>2025-02-17T13:29:12.315Z</time>
      </trkpt>
      <trkpt lat="46.71551" lon="-1.03403">
        <ele>83.6</ele>
        <time>2025-02-17T13:29:14.094Z</time>
      </trkpt>
      <trkpt lat="46.71521" lon="-1.03419">
        <ele>84.2</ele>
        <time>2025-02-17T13:29:20.746Z</time>
      </trkpt>
      <trkpt lat="46.71502" lon="-1.03428">
        <ele>84.5</ele>
        <time>2025-02-17T13:29:24.616Z</time>
      </trkpt>
      <trkpt lat="46.7149" lon="-1.03422">
        <ele>84.8</ele>
        <time>2025-02-17T13:29:27.455Z</time>
      </trkpt>
      <trkpt lat="46.71452" lon="-1.03388">
        <ele>85</ele>
        <time>2025-02-17T13:29:35.279Z</time>
      </trkpt>
      <trkpt lat="46.7143" lon="-1.03371">
        <ele>85</ele>
        <time>2025-02-17T13:29:39.499Z</time>
      </trkpt>
      <trkpt lat="46.71413" lon="-1.03361">
        <ele>85</ele>
        <time>2025-02-17T13:29:42.632Z</time>
      </trkpt>
      <trkpt lat="46.71394" lon="-1.03358">
        <ele>85</ele>
        <time>2025-02-17T13:29:45.897Z</time>
      </trkpt>
      <trkpt lat="46.71356" lon="-1.03356">
        <ele>84</ele>
        <time>2025-02-17T13:29:51.072Z</time>
      </trkpt>
      <trkpt lat="46.71333" lon="-1.03356">
        <ele>84</ele>
        <time>2025-02-17T13:29:55.007Z</time>
      </trkpt>
      <trkpt lat="46.71315" lon="-1.03357">
        <ele>83.5</ele>
        <time>2025-02-17T13:29:57.294Z</time>
      </trkpt>
      <trkpt lat="46.71297" lon="-1.03366">
        <ele>82.9</ele>
        <time>2025-02-17T13:29:59.845Z</time>
      </trkpt>
      <trkpt lat="46.71264" lon="-1.03392">
        <ele>82</ele>
        <time>2025-02-17T13:30:05.006Z</time>
      </trkpt>
      <trkpt lat="46.71225" lon="-1.03428">
        <ele>81.1</ele>
        <time>2025-02-17T13:30:11.478Z</time>
      </trkpt>
      <trkpt lat="46.71187" lon="-1.0346">
        <ele>80.3</ele>
        <time>2025-02-17T13:30:17.861Z</time>
      </trkpt>
      <trkpt lat="46.71172" lon="-1.03477">
        <ele>80</ele>
        <time>2025-02-17T13:30:20.743Z</time>
      </trkpt>
      <trkpt lat="46.71163" lon="-1.03485">
        <ele>79.9</ele>
        <time>2025-02-17T13:30:22.357Z</time>
      </trkpt>
      <trkpt lat="46.71151" lon="-1.03505">
        <ele>79.4</ele>
        <time>2025-02-17T13:30:24.798Z</time>
      </trkpt>
      <trkpt lat="46.71107" lon="-1.03453">
        <ele>78.9</ele>
        <time>2025-02-17T13:30:33.597Z</time>
      </trkpt>
      <trkpt lat="46.71067" lon="-1.03393">
        <ele>79.3</ele>
        <time>2025-02-17T13:30:44.046Z</time>
      </trkpt>
      <trkpt lat="46.7103" lon="-1.03335">
        <ele>80</ele>
        <time>2025-02-17T13:30:54.546Z</time>
      </trkpt>
      <trkpt lat="46.71012" lon="-1.03317">
        <ele>80</ele>
        <time>2025-02-17T13:30:58.222Z</time>
      </trkpt>
      <trkpt lat="46.70968" lon="-1.03282">
        <ele>80</ele>
        <time>2025-02-17T13:31:06.694Z</time>
      </trkpt>
      <trkpt lat="46.70933" lon="-1.03255">
        <ele>79.6</ele>
        <time>2025-02-17T13:31:12.830Z</time>
      </trkpt>
      <trkpt lat="46.70916" lon="-1.03237">
        <ele>79</ele>
        <time>2025-02-17T13:31:15.623Z</time>
      </trkpt>
      <trkpt lat="46.70893" lon="-1.03192">
        <ele>79</ele>
        <time>2025-02-17T13:31:22.221Z</time>
      </trkpt>
      <trkpt lat="46.70877" lon="-1.03163">
        <ele>78.5</ele>
        <time>2025-02-17T13:31:25.803Z</time>
      </trkpt>
      <trkpt lat="46.70816" lon="-1.03235">
        <ele>79</ele>
        <time>2025-02-17T13:31:39.993Z</time>
      </trkpt>
      <trkpt lat="46.7079" lon="-1.03259">
        <ele>79</ele>
        <time>2025-02-17T13:31:45.174Z</time>
      </trkpt>
      <trkpt lat="46.70724" lon="-1.03337">
        <ele>79</ele>
        <time>2025-02-17T13:31:59.666Z</time>
      </trkpt>
      <trkpt lat="46.70633" lon="-1.03436">
        <ele>77.3</ele>
        <time>2025-02-17T13:32:16.418Z</time>
      </trkpt>
      <trkpt lat="46.70566" lon="-1.03512">
        <ele>75.6</ele>
        <time>2025-02-17T13:32:28.572Z</time>
      </trkpt>
      <trkpt lat="46.70508" lon="-1.03577">
        <ele>74.1</ele>
        <time>2025-02-17T13:32:38.948Z</time>
      </trkpt>
      <trkpt lat="46.70477" lon="-1.03612">
        <ele>74</ele>
        <time>2025-02-17T13:32:45.368Z</time>
      </trkpt>
      <trkpt lat="46.70473" lon="-1.03627">
        <ele>73.4</ele>
        <time>2025-02-17T13:32:46.608Z</time>
      </trkpt>
      <trkpt lat="46.70469" lon="-1.03637">
        <ele>73.1</ele>
        <time>2025-02-17T13:32:47.533Z</time>
      </trkpt>
      <trkpt lat="46.70464" lon="-1.03644">
        <ele>73</ele>
        <time>2025-02-17T13:32:48.683Z</time>
      </trkpt>
      <trkpt lat="46.70452" lon="-1.03648">
        <ele>73</ele>
        <time>2025-02-17T13:32:50.679Z</time>
      </trkpt>
      <trkpt lat="46.70441" lon="-1.03652">
        <ele>72.9</ele>
        <time>2025-02-17T13:32:52.468Z</time>
      </trkpt>
      <trkpt lat="46.70428" lon="-1.03668">
        <ele>72.4</ele>
        <time>2025-02-17T13:32:54.674Z</time>
      </trkpt>
      <trkpt lat="46.70376" lon="-1.03726">
        <ele>70.5</ele>
        <time>2025-02-17T13:33:03.417Z</time>
      </trkpt>
      <trkpt lat="46.70316" lon="-1.03793">
        <ele>69.2</ele>
        <time>2025-02-17T13:33:14.414Z</time>
      </trkpt>
      <trkpt lat="46.70261" lon="-1.03854">
        <ele>67.4</ele>
        <time>2025-02-17T13:33:23.629Z</time>
      </trkpt>
      <trkpt lat="46.70201" lon="-1.03921">
        <ele>65.7</ele>
        <time>2025-02-17T13:33:34.285Z</time>
      </trkpt>
      <trkpt lat="46.70126" lon="-1.04006">
        <ele>64.4</ele>
        <time>2025-02-17T13:33:48.511Z</time>
      </trkpt>
      <trkpt lat="46.70044" lon="-1.04098">
        <ele>63.3</ele>
        <time>2025-02-17T13:34:04.389Z</time>
      </trkpt>
      <trkpt lat="46.69976" lon="-1.04175">
        <ele>62.6</ele>
        <time>2025-02-17T13:34:18.029Z</time>
      </trkpt>
      <trkpt lat="46.69937" lon="-1.0422">
        <ele>62.3</ele>
        <time>2025-02-17T13:34:26.029Z</time>
      </trkpt>
      <trkpt lat="46.69882" lon="-1.04281">
        <ele>61.2</ele>
        <time>2025-02-17T13:34:36.183Z</time>
      </trkpt>
      <trkpt lat="46.69868" lon="-1.04301">
        <ele>61.1</ele>
        <time>2025-02-17T13:34:39.298Z</time>
      </trkpt>
      <trkpt lat="46.69861" lon="-1.0432">
        <ele>60.5</ele>
        <time>2025-02-17T13:34:41.096Z</time>
      </trkpt>
      <trkpt lat="46.69859" lon="-1.04348">
        <ele>60.1</ele>
        <time>2025-02-17T13:34:43.816Z</time>
      </trkpt>
      <trkpt lat="46.69854" lon="-1.04368">
        <ele>60</ele>
        <time>2025-02-17T13:34:46.173Z</time>
      </trkpt>
      <trkpt lat="46.69849" lon="-1.04375">
        <ele>60</ele>
        <time>2025-02-17T13:34:47.375Z</time>
      </trkpt>
      <trkpt lat="46.69833" lon="-1.04381">
        <ele>60.3</ele>
        <time>2025-02-17T13:34:50.655Z</time>
      </trkpt>
      <trkpt lat="46.69821" lon="-1.04371">
        <ele>60.5</ele>
        <time>2025-02-17T13:34:53.346Z</time>
      </trkpt>
      <trkpt lat="46.69805" lon="-1.04377">
        <ele>59.9</ele>
        <time>2025-02-17T13:34:55.494Z</time>
      </trkpt>
      <trkpt lat="46.69782" lon="-1.04392">
        <ele>59.7</ele>
        <time>2025-02-17T13:34:59.360Z</time>
      </trkpt>
      <trkpt lat="46.69689" lon="-1.04496">
        <ele>60.1</ele>
        <time>2025-02-17T13:35:19.949Z</time>
      </trkpt>
      <trkpt lat="46.69621" lon="-1.04573">
        <ele>59.8</ele>
        <time>2025-02-17T13:35:34.169Z</time>
      </trkpt>
      <trkpt lat="46.69555" lon="-1.04648">
        <ele>58.7</ele>
        <time>2025-02-17T13:35:46.740Z</time>
      </trkpt>
      <trkpt lat="46.69498" lon="-1.04711">
        <ele>58</ele>
        <time>2025-02-17T13:35:57.857Z</time>
      </trkpt>
      <trkpt lat="46.69437" lon="-1.04782">
        <ele>56.8</ele>
        <time>2025-02-17T13:36:09.488Z</time>
      </trkpt>
      <trkpt lat="46.69389" lon="-1.04835">
        <ele>56.8</ele>
        <time>2025-02-17T13:36:19.701Z</time>
      </trkpt>
      <trkpt lat="46.69323" lon="-1.0491">
        <ele>56.4</ele>
        <time>2025-02-17T13:36:33.283Z</time>
      </trkpt>
      <trkpt lat="46.69277" lon="-1.04961">
        <ele>56.6</ele>
        <time>2025-02-17T13:36:43.478Z</time>
      </trkpt>
      <trkpt lat="46.69227" lon="-1.05018">
        <ele>57.3</ele>
        <time>2025-02-17T13:36:55.445Z</time>
      </trkpt>
      <trkpt lat="46.69174" lon="-1.05078">
        <ele>58.9</ele>
        <time>2025-02-17T13:37:10.057Z</time>
      </trkpt>
      <trkpt lat="46.6915" lon="-1.05104">
        <ele>59.9</ele>
        <time>2025-02-17T13:37:17.269Z</time>
      </trkpt>
      <trkpt lat="46.691" lon="-1.05162">
        <ele>61.9</ele>
        <time>2025-02-17T13:37:32.303Z</time>
      </trkpt>
      <trkpt lat="46.69062" lon="-1.05208">
        <ele>63</ele>
        <time>2025-02-17T13:37:42.852Z</time>
      </trkpt>
      <trkpt lat="46.69046" lon="-1.05224">
        <ele>63.1</ele>
        <time>2025-02-17T13:37:46.333Z</time>
      </trkpt>
      <trkpt lat="46.6904" lon="-1.05233">
        <ele>63.4</ele>
        <time>2025-02-17T13:37:48.412Z</time>
      </trkpt>
      <trkpt lat="46.6904" lon="-1.05242">
        <ele>63.7</ele>
        <time>2025-02-17T13:37:50.178Z</time>
      </trkpt>
      <trkpt lat="46.69035" lon="-1.05249">
        <ele>64</ele>
        <time>2025-02-17T13:37:52.115Z</time>
      </trkpt>
      <trkpt lat="46.6903" lon="-1.05249">
        <ele>64</ele>
        <time>2025-02-17T13:37:52.992Z</time>
      </trkpt>
      <trkpt lat="46.69013" lon="-1.05277">
        <ele>64</ele>
        <time>2025-02-17T13:37:57.203Z</time>
      </trkpt>
      <trkpt lat="46.68979" lon="-1.0534">
        <ele>64.1</ele>
        <time>2025-02-17T13:38:06.797Z</time>
      </trkpt>
      <trkpt lat="46.68937" lon="-1.05412">
        <ele>63.7</ele>
        <time>2025-02-17T13:38:17.220Z</time>
      </trkpt>
      <trkpt lat="46.68926" lon="-1.0542">
        <ele>63.5</ele>
        <time>2025-02-17T13:38:19.030Z</time>
      </trkpt>
      <trkpt lat="46.68895" lon="-1.05417">
        <ele>62.3</ele>
        <time>2025-02-17T13:38:22.718Z</time>
      </trkpt>
      <trkpt lat="46.6886" lon="-1.05416">
        <ele>61.8</ele>
        <time>2025-02-17T13:38:28.060Z</time>
      </trkpt>
      <trkpt lat="46.68845" lon="-1.05418">
        <ele>60.9</ele>
        <time>2025-02-17T13:38:29.622Z</time>
      </trkpt>
      <trkpt lat="46.68841" lon="-1.05424">
        <ele>60.7</ele>
        <time>2025-02-17T13:38:30.345Z</time>
      </trkpt>
      <trkpt lat="46.68836" lon="-1.05443">
        <ele>60.3</ele>
        <time>2025-02-17T13:38:32.181Z</time>
      </trkpt>
      <trkpt lat="46.68839" lon="-1.05492">
        <ele>60.8</ele>
        <time>2025-02-17T13:38:38.926Z</time>
      </trkpt>
      <trkpt lat="46.68842" lon="-1.05549">
        <ele>61.9</ele>
        <time>2025-02-17T13:38:47.835Z</time>
      </trkpt>
      <trkpt lat="46.68856" lon="-1.0555">
        <ele>62.1</ele>
        <time>2025-02-17T13:38:50.580Z</time>
      </trkpt>
      <trkpt lat="46.6888" lon="-1.05514">
        <ele>64.2</ele>
        <time>2025-02-17T13:39:02.365Z</time>
      </trkpt>
      <trkpt lat="46.68888" lon="-1.05508">
        <ele>64.7</ele>
        <time>2025-02-17T13:39:05.251Z</time>
      </trkpt>
      <trkpt lat="46.68933" lon="-1.05514">
        <ele>65.8</ele>
        <time>2025-02-17T13:39:15.030Z</time>
      </trkpt>
      <trkpt lat="46.68969" lon="-1.05519">
        <ele>67</ele>
        <time>2025-02-17T13:39:23.784Z</time>
      </trkpt>
      <trkpt lat="46.6898" lon="-1.05532">
        <ele>68</ele>
        <time>2025-02-17T13:39:29.296Z</time>
      </trkpt>
      <trkpt lat="46.68985" lon="-1.05546">
        <ele>68.3</ele>
        <time>2025-02-17T13:39:31.750Z</time>
      </trkpt>
      <trkpt lat="46.69017" lon="-1.05749">
        <ele>73</ele>
        <time>2025-02-17T13:40:06.110Z</time>
      </trkpt>
      <trkpt lat="46.69059" lon="-1.06076">
        <ele>75.1</ele>
        <time>2025-02-17T13:40:48.532Z</time>
      </trkpt>
      <trkpt lat="46.69059" lon="-1.06241">
        <ele>75.2</ele>
        <time>2025-02-17T13:41:07.920Z</time>
      </trkpt>
      <trkpt lat="46.69066" lon="-1.06311">
        <ele>76.9</ele>
        <time>2025-02-17T13:41:19.886Z</time>
      </trkpt>
      <trkpt lat="46.69074" lon="-1.06345">
        <ele>78.5</ele>
        <time>2025-02-17T13:41:28.768Z</time>
      </trkpt>
      <trkpt lat="46.69112" lon="-1.06443">
        <ele>80.6</ele>
        <time>2025-02-17T13:41:46.164Z</time>
      </trkpt>
      <trkpt lat="46.69124" lon="-1.06488">
        <ele>78.8</ele>
        <time>2025-02-17T13:41:49.812Z</time>
      </trkpt>
      <trkpt lat="46.69135" lon="-1.06631">
        <ele>74.1</ele>
        <time>2025-02-17T13:42:01.189Z</time>
      </trkpt>
      <trkpt lat="46.69145" lon="-1.06677">
        <ele>72.6</ele>
        <time>2025-02-17T13:42:05.066Z</time>
      </trkpt>
      <trkpt lat="46.69185" lon="-1.0676">
        <ele>71.1</ele>
        <time>2025-02-17T13:42:14.829Z</time>
      </trkpt>
      <trkpt lat="46.6922" lon="-1.06849">
        <ele>69.7</ele>
        <time>2025-02-17T13:42:24.840Z</time>
      </trkpt>
      <trkpt lat="46.69282" lon="-1.06965">
        <ele>69.5</ele>
        <time>2025-02-17T13:42:41.657Z</time>
      </trkpt>
      <trkpt lat="46.69288" lon="-1.06993">
        <ele>69</ele>
        <time>2025-02-17T13:42:44.406Z</time>
      </trkpt>
      <trkpt lat="46.69289" lon="-1.07031">
        <ele>68.1</ele>
        <time>2025-02-17T13:42:47.710Z</time>
      </trkpt>
      <trkpt lat="46.69268" lon="-1.07155">
        <ele>67.7</ele>
        <time>2025-02-17T13:43:01.969Z</time>
      </trkpt>
      <trkpt lat="46.69274" lon="-1.07191">
        <ele>67.2</ele>
        <time>2025-02-17T13:43:05.591Z</time>
      </trkpt>
      <trkpt lat="46.69288" lon="-1.0721">
        <ele>67.3</ele>
        <time>2025-02-17T13:43:09.009Z</time>
      </trkpt>
      <trkpt lat="46.69346" lon="-1.07247">
        <ele>69.8</ele>
        <time>2025-02-17T13:43:25.473Z</time>
      </trkpt>
      <trkpt lat="46.69579" lon="-1.07487">
        <ele>80.8</ele>
        <time>2025-02-17T13:44:38.840Z</time>
      </trkpt>
      <trkpt lat="46.69668" lon="-1.07592">
        <ele>76.9</ele>
        <time>2025-02-17T13:44:53.393Z</time>
      </trkpt>
      <trkpt lat="46.69726" lon="-1.07688">
        <ele>74.7</ele>
        <time>2025-02-17T13:45:05.358Z</time>
      </trkpt>
      <trkpt lat="46.69806" lon="-1.07864">
        <ele>79.3</ele>
        <time>2025-02-17T13:45:39.730Z</time>
      </trkpt>
      <trkpt lat="46.69858" lon="-1.07948">
        <ele>80.4</ele>
        <time>2025-02-17T13:45:54.911Z</time>
      </trkpt>
      <trkpt lat="46.69937" lon="-1.08093">
        <ele>75.2</ele>
        <time>2025-02-17T13:46:10.256Z</time>
      </trkpt>
      <trkpt lat="46.69982" lon="-1.08149">
        <ele>74.8</ele>
        <time>2025-02-17T13:46:19.693Z</time>
      </trkpt>
      <trkpt lat="46.70164" lon="-1.08306">
        <ele>77.1</ele>
        <time>2025-02-17T13:46:59.677Z</time>
      </trkpt>
      <trkpt lat="46.70328" lon="-1.08424">
        <ele>72.9</ele>
        <time>2025-02-17T13:47:25.044Z</time>
      </trkpt>
      <trkpt lat="46.70421" lon="-1.08441">
        <ele>76.3</ele>
        <time>2025-02-17T13:47:48.499Z</time>
      </trkpt>
      <trkpt lat="46.70526" lon="-1.08482">
        <ele>82.4</ele>
        <time>2025-02-17T13:48:23.356Z</time>
      </trkpt>
      <trkpt lat="46.70522" lon="-1.08551">
        <ele>84</ele>
        <time>2025-02-17T13:48:34.883Z</time>
      </trkpt>
      <trkpt lat="46.70605" lon="-1.0876">
        <ele>86.6</ele>
        <time>2025-02-17T13:49:07.801Z</time>
      </trkpt>
      <trkpt lat="46.70623" lon="-1.08841">
        <ele>87.6</ele>
        <time>2025-02-17T13:49:19.583Z</time>
      </trkpt>
      <trkpt lat="46.70634" lon="-1.08925">
        <ele>86.2</ele>
        <time>2025-02-17T13:49:27.658Z</time>
      </trkpt>
      <trkpt lat="46.70653" lon="-1.09019">
        <ele>85</ele>
        <time>2025-02-17T13:49:37.383Z</time>
      </trkpt>
      <trkpt lat="46.70723" lon="-1.09211">
        <ele>90</ele>
        <time>2025-02-17T13:50:13.511Z</time>
      </trkpt>
      <trkpt lat="46.70802" lon="-1.09361">
        <ele>86.1</ele>
        <time>2025-02-17T13:50:30.511Z</time>
      </trkpt>
      <trkpt lat="46.70837" lon="-1.09445">
        <ele>82.1</ele>
        <time>2025-02-17T13:50:37.700Z</time>
      </trkpt>
      <trkpt lat="46.70935" lon="-1.09764">
        <ele>78.3</ele>
        <time>2025-02-17T13:51:12.985Z</time>
      </trkpt>
      <trkpt lat="46.70972" lon="-1.09872">
        <ele>82.4</ele>
        <time>2025-02-17T13:51:37.369Z</time>
      </trkpt>
      <trkpt lat="46.70994" lon="-1.09923">
        <ele>81.8</ele>
        <time>2025-02-17T13:51:43.521Z</time>
      </trkpt>
      <trkpt lat="46.71056" lon="-1.10036">
        <ele>80</ele>
        <time>2025-02-17T13:51:57.849Z</time>
      </trkpt>
      <trkpt lat="46.71083" lon="-1.10071">
        <ele>81.1</ele>
        <time>2025-02-17T13:52:06.294Z</time>
      </trkpt>
      <trkpt lat="46.71114" lon="-1.10093">
        <ele>82.2</ele>
        <time>2025-02-17T13:52:14.490Z</time>
      </trkpt>
      <trkpt lat="46.71207" lon="-1.10135">
        <ele>79</ele>
        <time>2025-02-17T13:52:26.979Z</time>
      </trkpt>
      <trkpt lat="46.71247" lon="-1.1016">
        <ele>77.3</ele>
        <time>2025-02-17T13:52:32.309Z</time>
      </trkpt>
      <trkpt lat="46.71376" lon="-1.10267">
        <ele>73.6</ele>
        <time>2025-02-17T13:52:52.569Z</time>
      </trkpt>
      <trkpt lat="46.71435" lon="-1.10326">
        <ele>72.7</ele>
        <time>2025-02-17T13:53:03.403Z</time>
      </trkpt>
      <trkpt lat="46.71464" lon="-1.10364">
        <ele>71.9</ele>
        <time>2025-02-17T13:53:08.920Z</time>
      </trkpt>
      <trkpt lat="46.71548" lon="-1.10558">
        <ele>65.5</ele>
        <time>2025-02-17T13:53:27.963Z</time>
      </trkpt>
      <trkpt lat="46.71666" lon="-1.10726">
        <ele>60.9</ele>
        <time>2025-02-17T13:53:49.948Z</time>
      </trkpt>
      <trkpt lat="46.71684" lon="-1.1076">
        <ele>60.2</ele>
        <time>2025-02-17T13:53:54.007Z</time>
      </trkpt>
      <trkpt lat="46.7169" lon="-1.10798">
        <ele>61.5</ele>
        <time>2025-02-17T13:54:01.792Z</time>
      </trkpt>
      <trkpt lat="46.71663" lon="-1.1092">
        <ele>65.9</ele>
        <time>2025-02-17T13:54:27.858Z</time>
      </trkpt>
      <trkpt lat="46.71663" lon="-1.10945">
        <ele>66.7</ele>
        <time>2025-02-17T13:54:32.728Z</time>
      </trkpt>
      <trkpt lat="46.71672" lon="-1.10978">
        <ele>67.7</ele>
        <time>2025-02-17T13:54:39.183Z</time>
      </trkpt>
      <trkpt lat="46.71821" lon="-1.11209">
        <ele>76.3</ele>
        <time>2025-02-17T13:55:35.776Z</time>
      </trkpt>
      <trkpt lat="46.71899" lon="-1.1134">
        <ele>76.6</ele>
        <time>2025-02-17T13:55:56.477Z</time>
      </trkpt>
      <trkpt lat="46.7201" lon="-1.11285">
        <ele>72.5</ele>
        <time>2025-02-17T13:56:11.278Z</time>
      </trkpt>
      <trkpt lat="46.7206" lon="-1.11274">
        <ele>70</ele>
        <time>2025-02-17T13:56:17.034Z</time>
      </trkpt>
      <trkpt lat="46.72173" lon="-1.11301">
        <ele>67</ele>
        <time>2025-02-17T13:56:32.508Z</time>
      </trkpt>
      <trkpt lat="46.7229" lon="-1.11295">
        <ele>66</ele>
        <time>2025-02-17T13:56:50.884Z</time>
      </trkpt>
      <trkpt lat="46.72513" lon="-1.11308">
        <ele>68</ele>
        <time>2025-02-17T13:57:32.271Z</time>
      </trkpt>
      <trkpt lat="46.72614" lon="-1.11325">
        <ele>66.3</ele>
        <time>2025-02-17T13:57:47.128Z</time>
      </trkpt>
      <trkpt lat="46.72679" lon="-1.11322">
        <ele>65</ele>
        <time>2025-02-17T13:57:56.373Z</time>
      </trkpt>
      <trkpt lat="46.72748" lon="-1.11302">
        <ele>64.9</ele>
        <time>2025-02-17T13:58:08.163Z</time>
      </trkpt>
      <trkpt lat="46.72867" lon="-1.11234">
        <ele>68</ele>
        <time>2025-02-17T13:58:36.024Z</time>
      </trkpt>
      <trkpt lat="46.72895" lon="-1.11224">
        <ele>68</ele>
        <time>2025-02-17T13:58:40.921Z</time>
      </trkpt>
      <trkpt lat="46.7302" lon="-1.11209">
        <ele>67</ele>
        <time>2025-02-17T13:59:00.709Z</time>
      </trkpt>
      <trkpt lat="46.73074" lon="-1.11194">
        <ele>68</ele>
        <time>2025-02-17T13:59:11.927Z</time>
      </trkpt>
      <trkpt lat="46.73202" lon="-1.11147">
        <ele>66.7</ele>
        <time>2025-02-17T13:59:32.404Z</time>
      </trkpt>
      <trkpt lat="46.73222" lon="-1.11146">
        <ele>66</ele>
        <time>2025-02-17T13:59:34.931Z</time>
      </trkpt>
      <trkpt lat="46.73246" lon="-1.11152">
        <ele>65.1</ele>
        <time>2025-02-17T13:59:37.960Z</time>
      </trkpt>
      <trkpt lat="46.73352" lon="-1.11179">
        <ele>65.4</ele>
        <time>2025-02-17T13:59:56.734Z</time>
      </trkpt>
      <trkpt lat="46.73413" lon="-1.11185">
        <ele>67.2</ele>
        <time>2025-02-17T14:00:10.862Z</time>
      </trkpt>
      <trkpt lat="46.73535" lon="-1.11182">
        <ele>68.2</ele>
        <time>2025-02-17T14:00:33.316Z</time>
      </trkpt>
      <trkpt lat="46.73664" lon="-1.11206">
        <ele>62.7</ele>
        <time>2025-02-17T14:00:48.876Z</time>
      </trkpt>
      <trkpt lat="46.73682" lon="-1.11205">
        <ele>61.9</ele>
        <time>2025-02-17T14:00:50.999Z</time>
      </trkpt>
      <trkpt lat="46.73748" lon="-1.11185">
        <ele>58.4</ele>
        <time>2025-02-17T14:00:58.545Z</time>
      </trkpt>
      <trkpt lat="46.73786" lon="-1.11188">
        <ele>56.7</ele>
        <time>2025-02-17T14:01:03.023Z</time>
      </trkpt>
      <trkpt lat="46.73858" lon="-1.11214">
        <ele>56.2</ele>
        <time>2025-02-17T14:01:14.856Z</time>
      </trkpt>
      <trkpt lat="46.73979" lon="-1.11269">
        <ele>56</ele>
        <time>2025-02-17T14:01:36.066Z</time>
      </trkpt>
      <trkpt lat="46.7405" lon="-1.11308">
        <ele>56</ele>
        <time>2025-02-17T14:01:48.953Z</time>
      </trkpt>
      <trkpt lat="46.74145" lon="-1.11369">
        <ele>55.2</ele>
        <time>2025-02-17T14:02:05.367Z</time>
      </trkpt>
      <trkpt lat="46.74233" lon="-1.11413">
        <ele>53.6</ele>
        <time>2025-02-17T14:02:18.905Z</time>
      </trkpt>
      <trkpt lat="46.74251" lon="-1.11418">
        <ele>53</ele>
        <time>2025-02-17T14:02:21.258Z</time>
      </trkpt>
      <trkpt lat="46.74312" lon="-1.11414">
        <ele>53</ele>
        <time>2025-02-17T14:02:31.630Z</time>
      </trkpt>
      <trkpt lat="46.74337" lon="-1.11421">
        <ele>52.9</ele>
        <time>2025-02-17T14:02:35.798Z</time>
      </trkpt>
      <trkpt lat="46.74359" lon="-1.1138">
        <ele>53</ele>
        <time>2025-02-17T14:02:42.025Z</time>
      </trkpt>
      <trkpt lat="46.74389" lon="-1.11353">
        <ele>53</ele>
        <time>2025-02-17T14:02:48.012Z</time>
      </trkpt>
      <trkpt lat="46.744" lon="-1.11397">
        <ele>53</ele>
        <time>2025-02-17T14:02:53.464Z</time>
      </trkpt>
      <trkpt lat="46.74399" lon="-1.11432">
        <ele>53</ele>
        <time>2025-02-17T14:02:57.542Z</time>
      </trkpt>
      <trkpt lat="46.74452" lon="-1.11436">
        <ele>53</ele>
        <time>2025-02-17T14:03:06.557Z</time>
      </trkpt>
      <trkpt lat="46.74539" lon="-1.11417">
        <ele>52</ele>
        <time>2025-02-17T14:03:20.022Z</time>
      </trkpt>
      <trkpt lat="46.74671" lon="-1.11428">
        <ele>50.8</ele>
        <time>2025-02-17T14:03:40.676Z</time>
      </trkpt>
      <trkpt lat="46.74839" lon="-1.11442">
        <ele>50</ele>
        <time>2025-02-17T14:04:08.016Z</time>
      </trkpt>
      <trkpt lat="46.74861" lon="-1.11439">
        <ele>50</ele>
        <time>2025-02-17T14:04:11.769Z</time>
      </trkpt>
      <trkpt lat="46.74892" lon="-1.11425">
        <ele>51</ele>
        <time>2025-02-17T14:04:19.388Z</time>
      </trkpt>
      <trkpt lat="46.74931" lon="-1.11388">
        <ele>52</ele>
        <time>2025-02-17T14:04:29.225Z</time>
      </trkpt>
      <trkpt lat="46.7497" lon="-1.11326">
        <ele>54.8</ele>
        <time>2025-02-17T14:04:46.003Z</time>
      </trkpt>
      <trkpt lat="46.75002" lon="-1.11251">
        <ele>59.2</ele>
        <time>2025-02-17T14:05:10.240Z</time>
      </trkpt>
      <trkpt lat="46.75013" lon="-1.11206">
        <ele>62</ele>
        <time>2025-02-17T14:05:25.845Z</time>
      </trkpt>
      <trkpt lat="46.75018" lon="-1.11137">
        <ele>63.3</ele>
        <time>2025-02-17T14:05:36.573Z</time>
      </trkpt>
      <trkpt lat="46.75016" lon="-1.10871">
        <ele>57.6</ele>
        <time>2025-02-17T14:06:00.243Z</time>
      </trkpt>
      <trkpt lat="46.75005" lon="-1.10815">
        <ele>58.9</ele>
        <time>2025-02-17T14:06:09.806Z</time>
      </trkpt>
      <trkpt lat="46.74958" lon="-1.1068">
        <ele>59.7</ele>
        <time>2025-02-17T14:06:28.807Z</time>
      </trkpt>
      <trkpt lat="46.74952" lon="-1.10644">
        <ele>59.3</ele>
        <time>2025-02-17T14:06:32.547Z</time>
      </trkpt>
      <trkpt lat="46.74952" lon="-1.10598">
        <ele>58.5</ele>
        <time>2025-02-17T14:06:36.834Z</time>
      </trkpt>
      <trkpt lat="46.75024" lon="-1.09827">
        <ele>56.9</ele>
        <time>2025-02-17T14:08:04.878Z</time>
      </trkpt>
      <trkpt lat="46.7503" lon="-1.09786">
        <ele>55.3</ele>
        <time>2025-02-17T14:08:08.015Z</time>
      </trkpt>
      <trkpt lat="46.75049" lon="-1.09735">
        <ele>55.5</ele>
        <time>2025-02-17T14:08:15.108Z</time>
      </trkpt>
      <trkpt lat="46.75076" lon="-1.09696">
        <ele>58.5</ele>
        <time>2025-02-17T14:08:31.679Z</time>
      </trkpt>
      <trkpt lat="46.75166" lon="-1.09588">
        <ele>62.8</ele>
        <time>2025-02-17T14:09:01.056Z</time>
      </trkpt>
      <trkpt lat="46.75187" lon="-1.09556">
        <ele>61.8</ele>
        <time>2025-02-17T14:09:04.948Z</time>
      </trkpt>
      <trkpt lat="46.7523" lon="-1.0954">
        <ele>63</ele>
        <time>2025-02-17T14:09:14.928Z</time>
      </trkpt>
      <trkpt lat="46.75598" lon="-1.0945">
        <ele>70.9</ele>
        <time>2025-02-17T14:10:33.561Z</time>
      </trkpt>
      <trkpt lat="46.75634" lon="-1.09436">
        <ele>69.8</ele>
        <time>2025-02-17T14:10:38.465Z</time>
      </trkpt>
      <trkpt lat="46.75669" lon="-1.09409">
        <ele>68.7</ele>
        <time>2025-02-17T14:10:43.748Z</time>
      </trkpt>
      <trkpt lat="46.75708" lon="-1.09359">
        <ele>67.4</ele>
        <time>2025-02-17T14:10:50.828Z</time>
      </trkpt>
      <trkpt lat="46.76075" lon="-1.0884">
        <ele>81.2</ele>
        <time>2025-02-17T14:12:45.696Z</time>
      </trkpt>
      <trkpt lat="46.76177" lon="-1.08743">
        <ele>75.2</ele>
        <time>2025-02-17T14:12:59.568Z</time>
      </trkpt>
      <trkpt lat="46.76358" lon="-1.08592">
        <ele>77.7</ele>
        <time>2025-02-17T14:13:39.439Z</time>
      </trkpt>
      <trkpt lat="46.76404" lon="-1.08538">
        <ele>79.8</ele>
        <time>2025-02-17T14:13:54.088Z</time>
      </trkpt>
      <trkpt lat="46.76658" lon="-1.08095">
        <ele>74</ele>
        <time>2025-02-17T14:14:52.946Z</time>
      </trkpt>
      <trkpt lat="46.76744" lon="-1.07954">
        <ele>66.6</ele>
        <time>2025-02-17T14:15:06.929Z</time>
      </trkpt>
      <trkpt lat="46.76791" lon="-1.07903">
        <ele>61.3</ele>
        <time>2025-02-17T14:15:12.897Z</time>
      </trkpt>
      <trkpt lat="46.77037" lon="-1.07665">
        <ele>72</ele>
        <time>2025-02-17T14:16:26.732Z</time>
      </trkpt>
      <trkpt lat="46.77084" lon="-1.07617">
        <ele>73</ele>
        <time>2025-02-17T14:16:38.344Z</time>
      </trkpt>
      <trkpt lat="46.77113" lon="-1.07576">
        <ele>72.8</ele>
        <time>2025-02-17T14:16:44.890Z</time>
      </trkpt>
      <trkpt lat="46.7717" lon="-1.07454">
        <ele>74</ele>
        <time>2025-02-17T14:17:04.210Z</time>
      </trkpt>
      <trkpt lat="46.772" lon="-1.07407">
        <ele>75.3</ele>
        <time>2025-02-17T14:17:14.320Z</time>
      </trkpt>
      <trkpt lat="46.77256" lon="-1.0735">
        <ele>76.9</ele>
        <time>2025-02-17T14:17:29.107Z</time>
      </trkpt>
      <trkpt lat="46.77302" lon="-1.0731">
        <ele>77.8</ele>
        <time>2025-02-17T14:17:39.899Z</time>
      </trkpt>
      <trkpt lat="46.7735" lon="-1.07281">
        <ele>76.3</ele>
        <time>2025-02-17T14:17:46.843Z</time>
      </trkpt>
      <trkpt lat="46.7739" lon="-1.07268">
        <ele>77</ele>
        <time>2025-02-17T14:17:55.054Z</time>
      </trkpt>
      <trkpt lat="46.77434" lon="-1.07262">
        <ele>77.3</ele>
        <time>2025-02-17T14:18:03.090Z</time>
      </trkpt>
      <trkpt lat="46.77516" lon="-1.07256">
        <ele>81.7</ele>
        <time>2025-02-17T14:18:28.525Z</time>
      </trkpt>
      <trkpt lat="46.77586" lon="-1.07254">
        <ele>86</ele>
        <time>2025-02-17T14:18:52.636Z</time>
      </trkpt>
      <trkpt lat="46.77687" lon="-1.07248">
        <ele>90.5</ele>
        <time>2025-02-17T14:19:20.575Z</time>
      </trkpt>
      <trkpt lat="46.77762" lon="-1.07227">
        <ele>94.4</ele>
        <time>2025-02-17T14:19:43.489Z</time>
      </trkpt>
      <trkpt lat="46.77924" lon="-1.07179">
        <ele>99.3</ele>
        <time>2025-02-17T14:20:21.839Z</time>
      </trkpt>
      <trkpt lat="46.78101" lon="-1.07125">
        <ele>102.6</ele>
        <time>2025-02-17T14:20:58.767Z</time>
      </trkpt>
      <trkpt lat="46.78189" lon="-1.07097">
        <ele>103.9</ele>
        <time>2025-02-17T14:21:16.457Z</time>
      </trkpt>
      <trkpt lat="46.782" lon="-1.07091">
        <ele>104.1</ele>
        <time>2025-02-17T14:21:18.733Z</time>
      </trkpt>
      <trkpt lat="46.78209" lon="-1.07075">
        <ele>104.2</ele>
        <time>2025-02-17T14:21:21.253Z</time>
      </trkpt>
      <trkpt lat="46.78207" lon="-1.07071">
        <ele>104</ele>
        <time>2025-02-17T14:21:21.629Z</time>
      </trkpt>
      <trkpt lat="46.78217" lon="-1.07054">
        <ele>103.3</ele>
        <time>2025-02-17T14:21:23.312Z</time>
      </trkpt>
      <trkpt lat="46.78232" lon="-1.07054">
        <ele>103.4</ele>
        <time>2025-02-17T14:21:26.150Z</time>
      </trkpt>
      <trkpt lat="46.78245" lon="-1.07061">
        <ele>103.7</ele>
        <time>2025-02-17T14:21:28.993Z</time>
      </trkpt>
      <trkpt lat="46.7826" lon="-1.07063">
        <ele>103.2</ele>
        <time>2025-02-17T14:21:30.985Z</time>
      </trkpt>
      <trkpt lat="46.7833" lon="-1.07037">
        <ele>100.2</ele>
        <time>2025-02-17T14:21:39.762Z</time>
      </trkpt>
      <trkpt lat="46.78372" lon="-1.07019">
        <ele>98</ele>
        <time>2025-02-17T14:21:44.691Z</time>
      </trkpt>
      <trkpt lat="46.7842" lon="-1.06987">
        <ele>95.8</ele>
        <time>2025-02-17T14:21:51.058Z</time>
      </trkpt>
      <trkpt lat="46.78467" lon="-1.06943">
        <ele>94.8</ele>
        <time>2025-02-17T14:21:59.051Z</time>
      </trkpt>
      <trkpt lat="46.78497" lon="-1.06904">
        <ele>94.4</ele>
        <time>2025-02-17T14:22:05.212Z</time>
      </trkpt>
      <trkpt lat="46.78524" lon="-1.06864">
        <ele>95.5</ele>
        <time>2025-02-17T14:22:14.052Z</time>
      </trkpt>
      <trkpt lat="46.78549" lon="-1.06814">
        <ele>96.3</ele>
        <time>2025-02-17T14:22:22.790Z</time>
      </trkpt>
      <trkpt lat="46.78575" lon="-1.06745">
        <ele>98.9</ele>
        <time>2025-02-17T14:22:38.410Z</time>
      </trkpt>
      <trkpt lat="46.78609" lon="-1.06639">
        <ele>103.9</ele>
        <time>2025-02-17T14:23:06.336Z</time>
      </trkpt>
      <trkpt lat="46.7862" lon="-1.06602">
        <ele>105.3</ele>
        <time>2025-02-17T14:23:14.592Z</time>
      </trkpt>
      <trkpt lat="46.78633" lon="-1.06563">
        <ele>106.5</ele>
        <time>2025-02-17T14:23:22.403Z</time>
      </trkpt>
      <trkpt lat="46.78639" lon="-1.06544">
        <ele>107</ele>
        <time>2025-02-17T14:23:25.930Z</time>
      </trkpt>
      <trkpt lat="46.78645" lon="-1.06525">
        <ele>107.2</ele>
        <time>2025-02-17T14:23:28.726Z</time>
      </trkpt>
      <trkpt lat="46.78671" lon="-1.06386">
        <ele>109</ele>
        <time>2025-02-17T14:23:48.873Z</time>
      </trkpt>
      <trkpt lat="46.7869" lon="-1.06236">
        <ele>109</ele>
        <time>2025-02-17T14:24:06.615Z</time>
      </trkpt>
      <trkpt lat="46.78695" lon="-1.06162">
        <ele>109</ele>
        <time>2025-02-17T14:24:15.264Z</time>
      </trkpt>
      <trkpt lat="46.78718" lon="-1.06159">
        <ele>109.6</ele>
        <time>2025-02-17T14:24:20.396Z</time>
      </trkpt>
      <trkpt lat="46.78742" lon="-1.06143">
        <ele>109.1</ele>
        <time>2025-02-17T14:24:24.179Z</time>
      </trkpt>
      <trkpt lat="46.78795" lon="-1.06107">
        <ele>107.9</ele>
        <time>2025-02-17T14:24:32.451Z</time>
      </trkpt>
      <trkpt lat="46.78814" lon="-1.061">
        <ele>106.9</ele>
        <time>2025-02-17T14:24:34.658Z</time>
      </trkpt>
      <trkpt lat="46.78845" lon="-1.061">
        <ele>105</ele>
        <time>2025-02-17T14:24:37.924Z</time>
      </trkpt>
      <trkpt lat="46.78863" lon="-1.06103">
        <ele>103.4</ele>
        <time>2025-02-17T14:24:39.771Z</time>
      </trkpt>
      <trkpt lat="46.78884" lon="-1.06112">
        <ele>101.4</ele>
        <time>2025-02-17T14:24:42.001Z</time>
      </trkpt>
      <trkpt lat="46.7915" lon="-1.06248">
        <ele>92.6</ele>
        <time>2025-02-17T14:25:18.613Z</time>
      </trkpt>
      <trkpt lat="46.79194" lon="-1.06266">
        <ele>92</ele>
        <time>2025-02-17T14:25:25.500Z</time>
      </trkpt>
      <trkpt lat="46.79251" lon="-1.06278">
        <ele>92</ele>
        <time>2025-02-17T14:25:35.283Z</time>
      </trkpt>
      <trkpt lat="46.79259" lon="-1.06278">
        <ele>92</ele>
        <time>2025-02-17T14:25:36.641Z</time>
      </trkpt>
      <trkpt lat="46.79308" lon="-1.06284">
        <ele>92.1</ele>
        <time>2025-02-17T14:25:45.158Z</time>
      </trkpt>
      <trkpt lat="46.79326" lon="-1.06286">
        <ele>92.5</ele>
        <time>2025-02-17T14:25:49.004Z</time>
      </trkpt>
      <trkpt lat="46.79415" lon="-1.06308">
        <ele>91</ele>
        <time>2025-02-17T14:26:02.206Z</time>
      </trkpt>
      <trkpt lat="46.79475" lon="-1.06316">
        <ele>88.9</ele>
        <time>2025-02-17T14:26:09.819Z</time>
      </trkpt>
      <trkpt lat="46.79505" lon="-1.06309">
        <ele>88</ele>
        <time>2025-02-17T14:26:13.815Z</time>
      </trkpt>
      <trkpt lat="46.79666" lon="-1.06231">
        <ele>93</ele>
        <time>2025-02-17T14:26:53.030Z</time>
      </trkpt>
      <trkpt lat="46.79745" lon="-1.06193">
        <ele>94</ele>
        <time>2025-02-17T14:27:08.942Z</time>
      </trkpt>
      <trkpt lat="46.7985" lon="-1.06178">
        <ele>92.8</ele>
        <time>2025-02-17T14:27:25.089Z</time>
      </trkpt>
      <trkpt lat="46.79878" lon="-1.06164">
        <ele>92.5</ele>
        <time>2025-02-17T14:27:29.669Z</time>
      </trkpt>
      <trkpt lat="46.799" lon="-1.06141">
        <ele>92.5</ele>
        <time>2025-02-17T14:27:34.265Z</time>
      </trkpt>
      <trkpt lat="46.79956" lon="-1.0606">
        <ele>91.9</ele>
        <time>2025-02-17T14:27:46.739Z</time>
      </trkpt>
      <trkpt lat="46.80041" lon="-1.0594">
        <ele>95.5</ele>
        <time>2025-02-17T14:28:14.375Z</time>
      </trkpt>
      <trkpt lat="46.80061" lon="-1.0592">
        <ele>94.8</ele>
        <time>2025-02-17T14:28:17.581Z</time>
      </trkpt>
      <trkpt lat="46.80082" lon="-1.05911">
        <ele>94.3</ele>
        <time>2025-02-17T14:28:20.620Z</time>
      </trkpt>
      <trkpt lat="46.80101" lon="-1.05907">
        <ele>93.7</ele>
        <time>2025-02-17T14:28:23.113Z</time>
      </trkpt>
      <trkpt lat="46.80128" lon="-1.05908">
        <ele>93.3</ele>
        <time>2025-02-17T14:28:27.125Z</time>
      </trkpt>
      <trkpt lat="46.80261" lon="-1.0595">
        <ele>90.5</ele>
        <time>2025-02-17T14:28:46.375Z</time>
      </trkpt>
      <trkpt lat="46.80283" lon="-1.0595">
        <ele>90.2</ele>
        <time>2025-02-17T14:28:49.676Z</time>
      </trkpt>
      <trkpt lat="46.803" lon="-1.05945">
        <ele>90.8</ele>
        <time>2025-02-17T14:28:53.930Z</time>
      </trkpt>
      <trkpt lat="46.8035" lon="-1.05904">
        <ele>91.5</ele>
        <time>2025-02-17T14:29:04.920Z</time>
      </trkpt>
      <trkpt lat="46.8037" lon="-1.05894">
        <ele>91.7</ele>
        <time>2025-02-17T14:29:08.860Z</time>
      </trkpt>
      <trkpt lat="46.80396" lon="-1.05888">
        <ele>91.9</ele>
        <time>2025-02-17T14:29:13.675Z</time>
      </trkpt>
      <trkpt lat="46.80433" lon="-1.05881">
        <ele>91.6</ele>
        <time>2025-02-17T14:29:19.558Z</time>
      </trkpt>
      <trkpt lat="46.80462" lon="-1.0587">
        <ele>92</ele>
        <time>2025-02-17T14:29:25.369Z</time>
      </trkpt>
      <trkpt lat="46.80506" lon="-1.0584">
        <ele>92.6</ele>
        <time>2025-02-17T14:29:34.690Z</time>
      </trkpt>
      <trkpt lat="46.80527" lon="-1.0582">
        <ele>93.5</ele>
        <time>2025-02-17T14:29:40.936Z</time>
      </trkpt>
      <trkpt lat="46.80543" lon="-1.05799">
        <ele>93.9</ele>
        <time>2025-02-17T14:29:45.344Z</time>
      </trkpt>
      <trkpt lat="46.80572" lon="-1.0575">
        <ele>94.2</ele>
        <time>2025-02-17T14:29:53.388Z</time>
      </trkpt>
      <trkpt lat="46.8059" lon="-1.05727">
        <ele>94.4</ele>
        <time>2025-02-17T14:29:57.796Z</time>
      </trkpt>
      <trkpt lat="46.80615" lon="-1.05703">
        <ele>94.3</ele>
        <time>2025-02-17T14:30:02.720Z</time>
      </trkpt>
      <trkpt lat="46.80696" lon="-1.05633">
        <ele>93.8</ele>
        <time>2025-02-17T14:30:17.932Z</time>
      </trkpt>
      <trkpt lat="46.80728" lon="-1.05598">
        <ele>93.9</ele>
        <time>2025-02-17T14:30:24.887Z</time>
        <extensions>
          <visugpx:TrkExtension xmlns:visugpx="https://www.visugpx.com/editgpx/">
            <visugpx:node>1</visugpx:node>
            </visugpx:TrkExtension>
        </extensions>
      </trkpt>
      <trkpt lat="46.80743" lon="-1.0558">
        <ele>94.4</ele>
        <time>2025-02-17T14:30:29.190Z</time>
      </trkpt>
      <trkpt lat="46.80831" lon="-1.05474">
        <ele>95.8</ele>
        <time>2025-02-17T14:30:51.066Z</time>
      </trkpt>
      <trkpt lat="46.80849" lon="-1.05456">
        <ele>96</ele>
        <time>2025-02-17T14:30:55.119Z</time>
      </trkpt>
      <trkpt lat="46.80868" lon="-1.05442">
        <ele>96.4</ele>
        <time>2025-02-17T14:30:59.490Z</time>
      </trkpt>
      <trkpt lat="46.80886" lon="-1.05432">
        <ele>96.9</ele>
        <time>2025-02-17T14:31:03.769Z</time>
      </trkpt>
      <trkpt lat="46.80905" lon="-1.05428">
        <ele>97.4</ele>
        <time>2025-02-17T14:31:08.038Z</time>
      </trkpt>
      <trkpt lat="46.80925" lon="-1.05428">
        <ele>98</ele>
        <time>2025-02-17T14:31:12.690Z</time>
      </trkpt>
      <trkpt lat="46.80943" lon="-1.05432">
        <ele>98.5</ele>
        <time>2025-02-17T14:31:16.804Z</time>
      </trkpt>
      <trkpt lat="46.81005" lon="-1.05458">
        <ele>100.2</ele>
        <time>2025-02-17T14:31:31.198Z</time>
      </trkpt>
      <trkpt lat="46.81042" lon="-1.05459">
        <ele>101.5</ele>
        <time>2025-02-17T14:31:40.334Z</time>
      </trkpt>
      <trkpt lat="46.8106" lon="-1.0546">
        <ele>102.2</ele>
        <time>2025-02-17T14:31:44.983Z</time>
      </trkpt>
      <trkpt lat="46.81198" lon="-1.05493">
        <ele>106</ele>
        <time>2025-02-17T14:32:16.478Z</time>
      </trkpt>
      <trkpt lat="46.81236" lon="-1.05504">
        <ele>106</ele>
        <time>2025-02-17T14:32:23.058Z</time>
      </trkpt>
      <trkpt lat="46.81557" lon="-1.05632">
        <ele>106</ele>
        <time>2025-02-17T14:33:19.580Z</time>
      </trkpt>
      <trkpt lat="46.81594" lon="-1.05644">
        <ele>105.5</ele>
        <time>2025-02-17T14:33:25.289Z</time>
      </trkpt>
      <trkpt lat="46.81645" lon="-1.05651">
        <ele>105</ele>
        <time>2025-02-17T14:33:33.242Z</time>
      </trkpt>
      <trkpt lat="46.81676" lon="-1.05655">
        <ele>104.8</ele>
        <time>2025-02-17T14:33:38.222Z</time>
      </trkpt>
      <trkpt lat="46.81802" lon="-1.0567">
        <ele>103.9</ele>
        <time>2025-02-17T14:33:58.322Z</time>
      </trkpt>
      <trkpt lat="46.81877" lon="-1.05679">
        <ele>103.2</ele>
        <time>2025-02-17T14:34:10.053Z</time>
      </trkpt>
      <trkpt lat="46.81924" lon="-1.05676">
        <ele>103.2</ele>
        <time>2025-02-17T14:34:18.045Z</time>
      </trkpt>
      <trkpt lat="46.81976" lon="-1.05653">
        <ele>104</ele>
        <time>2025-02-17T14:34:28.734Z</time>
      </trkpt>
      <trkpt lat="46.8204" lon="-1.05625">
        <ele>105.2</ele>
        <time>2025-02-17T14:34:42.334Z</time>
      </trkpt>
      <trkpt lat="46.82103" lon="-1.05591">
        <ele>106.5</ele>
        <time>2025-02-17T14:34:56.212Z</time>
      </trkpt>
      <trkpt lat="46.82281" lon="-1.05512">
        <ele>102.9</ele>
        <time>2025-02-17T14:35:22.799Z</time>
      </trkpt>
      <trkpt lat="46.82366" lon="-1.05469">
        <ele>99.8</ele>
        <time>2025-02-17T14:35:34.199Z</time>
      </trkpt>
      <trkpt lat="46.82633" lon="-1.05344">
        <ele>101</ele>
        <time>2025-02-17T14:36:23.830Z</time>
      </trkpt>
      <trkpt lat="46.82733" lon="-1.05296">
        <ele>100</ele>
        <time>2025-02-17T14:36:40.210Z</time>
      </trkpt>
      <trkpt lat="46.82893" lon="-1.05224">
        <ele>98</ele>
        <time>2025-02-17T14:37:05.705Z</time>
      </trkpt>
      <trkpt lat="46.82935" lon="-1.0521">
        <ele>98.7</ele>
        <time>2025-02-17T14:37:14.317Z</time>
      </trkpt>
      <trkpt lat="46.82989" lon="-1.05205">
        <ele>99.4</ele>
        <time>2025-02-17T14:37:24.767Z</time>
      </trkpt>
      <trkpt lat="46.8305" lon="-1.05193">
        <ele>101.1</ele>
        <time>2025-02-17T14:37:38.699Z</time>
      </trkpt>
      <trkpt lat="46.83153" lon="-1.05164">
        <ele>103.6</ele>
        <time>2025-02-17T14:38:01.459Z</time>
      </trkpt>
      <trkpt lat="46.83289" lon="-1.05117">
        <ele>106.4</ele>
        <time>2025-02-17T14:38:30.549Z</time>
      </trkpt>
      <trkpt lat="46.83315" lon="-1.05247">
        <ele>107</ele>
        <time>2025-02-17T14:38:47.311Z</time>
      </trkpt>
      <trkpt lat="46.83436" lon="-1.05195">
        <ele>106.3</ele>
        <time>2025-02-17T14:39:07.652Z</time>
      </trkpt>
      <trkpt lat="46.8362" lon="-1.05155">
        <ele>101.4</ele>
        <time>2025-02-17T14:39:32.763Z</time>
        <extensions>
          <visugpx:TrkExtension xmlns:visugpx="https://www.visugpx.com/editgpx/">
            <visugpx:node>2</visugpx:node>
            </visugpx:TrkExtension>
        </extensions>
      </trkpt>
      <trkpt lat="46.83643" lon="-1.0515">
        <ele>99.9</ele>
        <time>2025-02-17T14:39:35.165Z</time>
      </trkpt>
      <trkpt lat="46.8367" lon="-1.05144">
        <ele>99.1</ele>
        <time>2025-02-17T14:39:38.766Z</time>
      </trkpt>
      <trkpt lat="46.83718" lon="-1.05133">
        <ele>97.2</ele>
        <time>2025-02-17T14:39:44.715Z</time>
      </trkpt>
      <trkpt lat="46.8374" lon="-1.05123">
        <ele>96.6</ele>
        <time>2025-02-17T14:39:47.833Z</time>
      </trkpt>
      <trkpt lat="46.83769" lon="-1.05105">
        <ele>96.1</ele>
        <time>2025-02-17T14:39:52.470Z</time>
      </trkpt>
      <trkpt lat="46.83792" lon="-1.05086">
        <ele>95</ele>
        <time>2025-02-17T14:39:55.646Z</time>
      </trkpt>
      <trkpt lat="46.83815" lon="-1.05076">
        <ele>94.2</ele>
        <time>2025-02-17T14:39:58.713Z</time>
      </trkpt>
      <trkpt lat="46.83913" lon="-1.05048">
        <ele>92</ele>
        <time>2025-02-17T14:40:12.670Z</time>
      </trkpt>
      <trkpt lat="46.83979" lon="-1.05033">
        <ele>93.3</ele>
        <time>2025-02-17T14:40:26.488Z</time>
      </trkpt>
      <trkpt lat="46.84058" lon="-1.04989">
        <ele>98.1</ele>
        <time>2025-02-17T14:40:53.833Z</time>
      </trkpt>
      <trkpt lat="46.8428" lon="-1.04848">
        <ele>106</ele>
        <time>2025-02-17T14:41:51.869Z</time>
      </trkpt>
      <trkpt lat="46.84306" lon="-1.0482">
        <ele>106</ele>
        <time>2025-02-17T14:41:57.354Z</time>
      </trkpt>
      <trkpt lat="46.84332" lon="-1.04786">
        <ele>107</ele>
        <time>2025-02-17T14:42:05.345Z</time>
      </trkpt>
      <trkpt lat="46.84356" lon="-1.04748">
        <ele>107.8</ele>
        <time>2025-02-17T14:42:12.918Z</time>
      </trkpt>
      <trkpt lat="46.84358" lon="-1.04741">
        <ele>107.9</ele>
        <time>2025-02-17T14:42:13.990Z</time>
      </trkpt>
      <trkpt lat="46.84364" lon="-1.04721">
        <ele>108</ele>
        <time>2025-02-17T14:42:16.698Z</time>
      </trkpt>
      <trkpt lat="46.84413" lon="-1.04676">
        <ele>108</ele>
        <time>2025-02-17T14:42:26.527Z</time>
      </trkpt>
      <trkpt lat="46.84442" lon="-1.0466">
        <ele>108</ele>
        <time>2025-02-17T14:42:31.792Z</time>
      </trkpt>
      <trkpt lat="46.8445" lon="-1.04656">
        <ele>107.8</ele>
        <time>2025-02-17T14:42:32.959Z</time>
      </trkpt>
      <trkpt lat="46.84463" lon="-1.04644">
        <ele>107.3</ele>
        <time>2025-02-17T14:42:34.936Z</time>
      </trkpt>
      <trkpt lat="46.84477" lon="-1.04625">
        <ele>106.9</ele>
        <time>2025-02-17T14:42:37.630Z</time>
      </trkpt>
      <trkpt lat="46.8452" lon="-1.04548">
        <ele>105.3</ele>
        <time>2025-02-17T14:42:47.018Z</time>
      </trkpt>
      <trkpt lat="46.84548" lon="-1.04504">
        <ele>104.3</ele>
        <time>2025-02-17T14:42:52.657Z</time>
      </trkpt>
      <trkpt lat="46.84605" lon="-1.04447">
        <ele>102.3</ele>
        <time>2025-02-17T14:43:01.788Z</time>
      </trkpt>
      <trkpt lat="46.8469" lon="-1.04372">
        <ele>99.2</ele>
        <time>2025-02-17T14:43:14.685Z</time>
      </trkpt>
      <trkpt lat="46.84733" lon="-1.04349">
        <ele>98</ele>
        <time>2025-02-17T14:43:20.872Z</time>
      </trkpt>
      <trkpt lat="46.84759" lon="-1.0433">
        <ele>98.1</ele>
        <time>2025-02-17T14:43:25.976Z</time>
      </trkpt>
      <trkpt lat="46.84777" lon="-1.04316">
        <ele>98.6</ele>
        <time>2025-02-17T14:43:30.433Z</time>
      </trkpt>
      <trkpt lat="46.84789" lon="-1.04301">
        <ele>98.7</ele>
        <time>2025-02-17T14:43:33.285Z</time>
      </trkpt>
      <trkpt lat="46.84805" lon="-1.04272">
        <ele>99.8</ele>
        <time>2025-02-17T14:43:40.217Z</time>
      </trkpt>
      <trkpt lat="46.84814" lon="-1.04259">
        <ele>99.7</ele>
        <time>2025-02-17T14:43:42.214Z</time>
      </trkpt>
      <trkpt lat="46.84831" lon="-1.04242">
        <ele>100.6</ele>
        <time>2025-02-17T14:43:47.853Z</time>
      </trkpt>
      <trkpt lat="46.84834" lon="-1.04227">
        <ele>100.2</ele>
        <time>2025-02-17T14:43:49.178Z</time>
      </trkpt>
      <trkpt lat="46.84841" lon="-1.04215">
        <ele>99.8</ele>
        <time>2025-02-17T14:43:50.519Z</time>
      </trkpt>
      <trkpt lat="46.84848" lon="-1.04212">
        <ele>99.8</ele>
        <time>2025-02-17T14:43:51.758Z</time>
      </trkpt>
      <trkpt lat="46.84854" lon="-1.04212">
        <ele>99.9</ele>
        <time>2025-02-17T14:43:52.963Z</time>
      </trkpt>
      <trkpt lat="46.84861" lon="-1.04214">
        <ele>100</ele>
        <time>2025-02-17T14:43:54.356Z</time>
      </trkpt>
      <trkpt lat="46.84863" lon="-1.04217">
        <ele>99.9</ele>
        <time>2025-02-17T14:43:54.718Z</time>
      </trkpt>
      <trkpt lat="46.84872" lon="-1.0422">
        <ele>99.6</ele>
        <time>2025-02-17T14:43:55.905Z</time>
      </trkpt>
      <trkpt lat="46.8488" lon="-1.04219">
        <ele>99.3</ele>
        <time>2025-02-17T14:43:56.901Z</time>
      </trkpt>
      <trkpt lat="46.84895" lon="-1.0421">
        <ele>98.6</ele>
        <time>2025-02-17T14:43:58.829Z</time>
      </trkpt>
      <trkpt lat="46.84903" lon="-1.042">
        <ele>98</ele>
        <time>2025-02-17T14:43:59.968Z</time>
      </trkpt>
      <trkpt lat="46.84913" lon="-1.04181">
        <ele>97.6</ele>
        <time>2025-02-17T14:44:02.217Z</time>
      </trkpt>
      <trkpt lat="46.84922" lon="-1.04168">
        <ele>97.8</ele>
        <time>2025-02-17T14:44:04.734Z</time>
      </trkpt>
      <trkpt lat="46.84989" lon="-1.041">
        <ele>95.4</ele>
        <time>2025-02-17T14:44:15.478Z</time>
      </trkpt>
      <trkpt lat="46.85112" lon="-1.03955">
        <ele>95.6</ele>
        <time>2025-02-17T14:44:42.643Z</time>
      </trkpt>
      <trkpt lat="46.85129" lon="-1.0393">
        <ele>95.7</ele>
        <time>2025-02-17T14:44:46.906Z</time>
      </trkpt>
      <trkpt lat="46.85163" lon="-1.03868">
        <ele>94.5</ele>
        <time>2025-02-17T14:44:54.500Z</time>
      </trkpt>
      <trkpt lat="46.8523" lon="-1.03771">
        <ele>92</ele>
        <time>2025-02-17T14:45:07.209Z</time>
      </trkpt>
      <trkpt lat="46.85238" lon="-1.03763">
        <ele>92</ele>
        <time>2025-02-17T14:45:08.855Z</time>
      </trkpt>
      <trkpt lat="46.85246" lon="-1.03757">
        <ele>92</ele>
        <time>2025-02-17T14:45:10.383Z</time>
      </trkpt>
      <trkpt lat="46.8526" lon="-1.03751">
        <ele>92.4</ele>
        <time>2025-02-17T14:45:13.677Z</time>
      </trkpt>
      <trkpt lat="46.85293" lon="-1.03741">
        <ele>93.5</ele>
        <time>2025-02-17T14:45:21.758Z</time>
      </trkpt>
      <trkpt lat="46.85338" lon="-1.03728">
        <ele>95.5</ele>
        <time>2025-02-17T14:45:34.302Z</time>
      </trkpt>
      <trkpt lat="46.85399" lon="-1.03709">
        <ele>97.9</ele>
        <time>2025-02-17T14:45:50.327Z</time>
      </trkpt>
      <trkpt lat="46.85447" lon="-1.03702">
        <ele>99.4</ele>
        <time>2025-02-17T14:46:01.688Z</time>
      </trkpt>
      <trkpt lat="46.85508" lon="-1.03683">
        <ele>100.2</ele>
        <time>2025-02-17T14:46:13.719Z</time>
        <extensions>
          <visugpx:TrkExtension xmlns:visugpx="https://www.visugpx.com/editgpx/">
            <visugpx:node>3</visugpx:node>
            </visugpx:TrkExtension>
        </extensions>
      </trkpt>
      <trkpt lat="46.85554" lon="-1.0367">
        <ele>101.1</ele>
        <time>2025-02-17T14:46:23.385Z</time>
      </trkpt>
      <trkpt lat="46.85593" lon="-1.03658">
        <ele>101.8</ele>
        <time>2025-02-17T14:46:31.464Z</time>
      </trkpt>
      <trkpt lat="46.85624" lon="-1.03649">
        <ele>102.5</ele>
        <time>2025-02-17T14:46:38.196Z</time>
      </trkpt>
      <trkpt lat="46.85704" lon="-1.03625">
        <ele>104.2</ele>
        <time>2025-02-17T14:46:55.340Z</time>
      </trkpt>
      <trkpt lat="46.85722" lon="-1.0362">
        <ele>104.3</ele>
        <time>2025-02-17T14:46:58.621Z</time>
      </trkpt>
      <trkpt lat="46.85747" lon="-1.03622">
        <ele>104.9</ele>
        <time>2025-02-17T14:47:04.062Z</time>
      </trkpt>
      <trkpt lat="46.85754" lon="-1.03625">
        <ele>105.1</ele>
        <time>2025-02-17T14:47:05.709Z</time>
      </trkpt>
      <trkpt lat="46.85822" lon="-1.03659">
        <ele>107.4</ele>
        <time>2025-02-17T14:47:22.814Z</time>
      </trkpt>
      <trkpt lat="46.85857" lon="-1.03677">
        <ele>108</ele>
        <time>2025-02-17T14:47:30.225Z</time>
      </trkpt>
      <trkpt lat="46.85858" lon="-1.03673">
        <ele>108</ele>
        <time>2025-02-17T14:47:30.720Z</time>
      </trkpt>
      <trkpt lat="46.85862" lon="-1.03628">
        <ele>107.6</ele>
        <time>2025-02-17T14:47:35.406Z</time>
      </trkpt>
      <trkpt lat="46.85865" lon="-1.036">
        <ele>107.1</ele>
        <time>2025-02-17T14:47:38.033Z</time>
      </trkpt>
      <trkpt lat="46.85866" lon="-1.03591">
        <ele>107</ele>
        <time>2025-02-17T14:47:38.950Z</time>
        <extensions>
          <visugpx:TrkExtension xmlns:visugpx="https://www.visugpx.com/editgpx/">
            <visugpx:node>4</visugpx:node>
            </visugpx:TrkExtension>
        </extensions>
      </trkpt>
      <trkpt lat="46.85871" lon="-1.03556">
        <ele>107</ele>
        <time>2025-02-17T14:47:43.103Z</time>
      </trkpt>
      <trkpt lat="46.85877" lon="-1.03544">
        <ele>106.8</ele>
        <time>2025-02-17T14:47:44.552Z</time>
      </trkpt>
      <trkpt lat="46.85975" lon="-1.03385">
        <ele>109.2</ele>
        <time>2025-02-17T14:48:13.860Z</time>
      </trkpt>
      <trkpt lat="46.8596" lon="-1.03364">
        <ele>108.6</ele>
        <time>2025-02-17T14:48:16.606Z</time>
      </trkpt>
      <trkpt lat="46.85912" lon="-1.03194">
        <ele>106</ele>
        <time>2025-02-17T14:48:34.384Z</time>
        <extensions>
          <visugpx:TrkExtension xmlns:visugpx="https://www.visugpx.com/editgpx/">
            <visugpx:node>5</visugpx:node>
            </visugpx:TrkExtension>
        </extensions>
      </trkpt>
      <trkpt lat="46.85902" lon="-1.03158">
        <ele>106.6</ele>
        <time>2025-02-17T14:48:40.070Z</time>
      </trkpt>
      <trkpt lat="46.85896" lon="-1.03128">
        <ele>107.1</ele>
        <time>2025-02-17T14:48:44.685Z</time>
      </trkpt>
      <trkpt lat="46.85894" lon="-1.03089">
        <ele>107.8</ele>
        <time>2025-02-17T14:48:50.641Z</time>
      </trkpt>
      <trkpt lat="46.85889" lon="-1.03049">
        <ele>108</ele>
        <time>2025-02-17T14:48:55.707Z</time>
      </trkpt>
      <trkpt lat="46.85883" lon="-1.03024">
        <ele>108.1</ele>
        <time>2025-02-17T14:48:58.953Z</time>
      </trkpt>
      <trkpt lat="46.8587" lon="-1.02975">
        <ele>108.3</ele>
        <time>2025-02-17T14:49:05.396Z</time>
      </trkpt>
      <trkpt lat="46.85861" lon="-1.02936">
        <ele>108</ele>
        <time>2025-02-17T14:49:09.731Z</time>
      </trkpt>
      <trkpt lat="46.85846" lon="-1.02837">
        <ele>107.5</ele>
        <time>2025-02-17T14:49:20.747Z</time>
      </trkpt>
      <trkpt lat="46.85843" lon="-1.02814">
        <ele>107.3</ele>
        <time>2025-02-17T14:49:23.174Z</time>
      </trkpt>
      <trkpt lat="46.85835" lon="-1.0276">
        <ele>107.1</ele>
        <time>2025-02-17T14:49:29.282Z</time>
      </trkpt>
      <trkpt lat="46.8583" lon="-1.02739">
        <ele>107</ele>
        <time>2025-02-17T14:49:31.711Z</time>
      </trkpt>
      <trkpt lat="46.85823" lon="-1.02723">
        <ele>106.6</ele>
        <time>2025-02-17T14:49:33.404Z</time>
      </trkpt>
      <trkpt lat="46.85804" lon="-1.027">
        <ele>106.8</ele>
        <time>2025-02-17T14:49:37.939Z</time>
      </trkpt>
      <trkpt lat="46.85797" lon="-1.02687">
        <ele>107.3</ele>
        <time>2025-02-17T14:49:41.056Z</time>
      </trkpt>
      <trkpt lat="46.85792" lon="-1.02664">
        <ele>108</ele>
        <time>2025-02-17T14:49:45.504Z</time>
      </trkpt>
      <trkpt lat="46.85782" lon="-1.0266">
        <ele>108</ele>
        <time>2025-02-17T14:49:47.265Z</time>
      </trkpt>
      <trkpt lat="46.85757" lon="-1.02627">
        <ele>108.4</ele>
        <time>2025-02-17T14:49:53.698Z</time>
      </trkpt>
      <trkpt lat="46.85705" lon="-1.02555">
        <ele>109</ele>
        <time>2025-02-17T14:50:06.901Z</time>
      </trkpt>
      <trkpt lat="46.85678" lon="-1.02522">
        <ele>108.9</ele>
        <time>2025-02-17T14:50:12.720Z</time>
      </trkpt>
      <trkpt lat="46.85672" lon="-1.02514">
        <ele>108.6</ele>
        <time>2025-02-17T14:50:13.730Z</time>
      </trkpt>
      <trkpt lat="46.85668" lon="-1.02502">
        <ele>108.1</ele>
        <time>2025-02-17T14:50:14.733Z</time>
      </trkpt>
      <trkpt lat="46.85677" lon="-1.02486">
        <ele>108.7</ele>
        <time>2025-02-17T14:50:18.548Z</time>
      </trkpt>
      <trkpt lat="46.85688" lon="-1.02459">
        <ele>109</ele>
        <time>2025-02-17T14:50:22.743Z</time>
        <extensions>
          <visugpx:TrkExtension xmlns:visugpx="https://www.visugpx.com/editgpx/">
            <visugpx:node>6</visugpx:node>
            </visugpx:TrkExtension>
        </extensions>
      </trkpt>
      <trkpt lat="46.85707" lon="-1.02412">
        <ele>109.1</ele>
        <time>2025-02-17T14:50:29.250Z</time>
      </trkpt>
      <trkpt lat="46.85762" lon="-1.02327">
        <ele>110</ele>
        <time>2025-02-17T14:50:44.438Z</time>
      </trkpt>
      <trkpt lat="46.85783" lon="-1.02301">
        <ele>109.9</ele>
        <time>2025-02-17T14:50:48.955Z</time>
      </trkpt>
      <trkpt lat="46.85801" lon="-1.02291">
        <ele>109.9</ele>
        <time>2025-02-17T14:50:52.226Z</time>
      </trkpt>
      <trkpt lat="46.85833" lon="-1.02272">
        <ele>110</ele>
        <time>2025-02-17T14:50:58.258Z</time>
      </trkpt>
      <trkpt lat="46.85832" lon="-1.02264">
        <ele>110</ele>
        <time>2025-02-17T14:50:59.203Z</time>
      </trkpt>
      <trkpt lat="46.85834" lon="-1.02259">
        <ele>110</ele>
        <time>2025-02-17T14:50:59.875Z</time>
      </trkpt>
      <trkpt lat="46.85838" lon="-1.02256">
        <ele>110</ele>
        <time>2025-02-17T14:51:00.639Z</time>
      </trkpt>
      <trkpt lat="46.85843" lon="-1.02259">
        <ele>110</ele>
        <time>2025-02-17T14:51:01.557Z</time>
      </trkpt>
      <trkpt lat="46.85855" lon="-1.02235">
        <ele>109.9</ele>
        <time>2025-02-17T14:51:04.855Z</time>
      </trkpt>
      <trkpt lat="46.85881" lon="-1.02189">
        <ele>109.9</ele>
        <time>2025-02-17T14:51:11.787Z</time>
      </trkpt>
      <trkpt lat="46.85895" lon="-1.02165">
        <ele>110.2</ele>
        <time>2025-02-17T14:51:15.995Z</time>
      </trkpt>
      <trkpt lat="46.859" lon="-1.02155">
        <ele>110.2</ele>
        <time>2025-02-17T14:51:17.434Z</time>
      </trkpt>
      <trkpt lat="46.85904" lon="-1.02142">
        <ele>110.1</ele>
        <time>2025-02-17T14:51:18.941Z</time>
      </trkpt>
      <trkpt lat="46.85904" lon="-1.02109">
        <ele>110.5</ele>
        <time>2025-02-17T14:51:23.523Z</time>
      </trkpt>
      <trkpt lat="46.85906" lon="-1.02097">
        <ele>110.6</ele>
        <time>2025-02-17T14:51:25.136Z</time>
      </trkpt>
      <trkpt lat="46.85911" lon="-1.02084">
        <ele>110.8</ele>
        <time>2025-02-17T14:51:27.250Z</time>
      </trkpt>
      <trkpt lat="46.85939" lon="-1.02033">
        <ele>111.2</ele>
        <time>2025-02-17T14:51:35.542Z</time>
      </trkpt>
      <trkpt lat="46.85944" lon="-1.02023">
        <ele>111</ele>
        <time>2025-02-17T14:51:36.711Z</time>
      </trkpt>
      <trkpt lat="46.85945" lon="-1.02019">
        <ele>111</ele>
        <time>2025-02-17T14:51:37.205Z</time>
      </trkpt>
      <trkpt lat="46.85942" lon="-1.02016">
        <ele>111</ele>
        <time>2025-02-17T14:51:37.823Z</time>
      </trkpt>
      <trkpt lat="46.8594" lon="-1.02012">
        <ele>111</ele>
        <time>2025-02-17T14:51:38.398Z</time>
      </trkpt>
      <trkpt lat="46.85941" lon="-1.02007">
        <ele>111</ele>
        <time>2025-02-17T14:51:39.003Z</time>
      </trkpt>
      <trkpt lat="46.85945" lon="-1.02002">
        <ele>111</ele>
        <time>2025-02-17T14:51:39.897Z</time>
      </trkpt>
      <trkpt lat="46.85949" lon="-1.02003">
        <ele>111.2</ele>
        <time>2025-02-17T14:51:41.089Z</time>
      </trkpt>
      <trkpt lat="46.85951" lon="-1.02007">
        <ele>111.2</ele>
        <time>2025-02-17T14:51:41.664Z</time>
      </trkpt>
      <trkpt lat="46.86018" lon="-1.01964">
        <ele>112.6</ele>
        <time>2025-02-17T14:51:56.748Z</time>
      </trkpt>
      <trkpt lat="46.86038" lon="-1.0195">
        <ele>112.5</ele>
        <time>2025-02-17T14:52:00.359Z</time>
      </trkpt>
      <trkpt lat="46.86045" lon="-1.01943">
        <ele>112.6</ele>
        <time>2025-02-17T14:52:01.977Z</time>
      </trkpt>
      <trkpt lat="46.86054" lon="-1.01934">
        <ele>113</ele>
        <time>2025-02-17T14:52:04.719Z</time>
      </trkpt>
      <trkpt lat="46.86058" lon="-1.01927">
        <ele>113.1</ele>
        <time>2025-02-17T14:52:05.963Z</time>
      </trkpt>
      <trkpt lat="46.86062" lon="-1.01918">
        <ele>113.2</ele>
        <time>2025-02-17T14:52:07.391Z</time>
      </trkpt>
      <trkpt lat="46.86064" lon="-1.01913">
        <ele>113.3</ele>
        <time>2025-02-17T14:52:08.264Z</time>
      </trkpt>
      <trkpt lat="46.86066" lon="-1.01908">
        <ele>113.3</ele>
        <time>2025-02-17T14:52:08.936Z</time>
      </trkpt>
      <trkpt lat="46.86073" lon="-1.01902">
        <ele>113.3</ele>
        <time>2025-02-17T14:52:10.315Z</time>
      </trkpt>
      <trkpt lat="46.86078" lon="-1.01902">
        <ele>113.4</ele>
        <time>2025-02-17T14:52:11.355Z</time>
      </trkpt>
      <trkpt lat="46.86082" lon="-1.01904">
        <ele>113.5</ele>
        <time>2025-02-17T14:52:12.271Z</time>
      </trkpt>
      <trkpt lat="46.86094" lon="-1.01898">
        <ele>113.3</ele>
        <time>2025-02-17T14:52:14.139Z</time>
      </trkpt>
      <trkpt lat="46.86108" lon="-1.01886">
        <ele>113.1</ele>
        <time>2025-02-17T14:52:16.602Z</time>
      </trkpt>
      <trkpt lat="46.86122" lon="-1.01868">
        <ele>113.8</ele>
        <time>2025-02-17T14:52:21.338Z</time>
      </trkpt>
      <trkpt lat="46.86126" lon="-1.01855">
        <ele>113.9</ele>
        <time>2025-02-17T14:52:23.170Z</time>
      </trkpt>
      <trkpt lat="46.86129" lon="-1.01836">
        <ele>113.7</ele>
        <time>2025-02-17T14:52:25.147Z</time>
      </trkpt>
      <trkpt lat="46.8613" lon="-1.0182">
        <ele>113.7</ele>
        <time>2025-02-17T14:52:27.013Z</time>
      </trkpt>
      <trkpt lat="46.86132" lon="-1.01795">
        <ele>113.8</ele>
        <time>2025-02-17T14:52:30.106Z</time>
      </trkpt>
      <trkpt lat="46.86137" lon="-1.01733">
        <ele>113.4</ele>
        <time>2025-02-17T14:52:36.757Z</time>
      </trkpt>
      <trkpt lat="46.86138" lon="-1.01717">
        <ele>113</ele>
        <time>2025-02-17T14:52:38.129Z</time>
      </trkpt>
      <trkpt lat="46.8614" lon="-1.01702">
        <ele>113</ele>
        <time>2025-02-17T14:52:39.904Z</time>
      </trkpt>
      <trkpt lat="46.8614" lon="-1.01694">
        <ele>113</ele>
        <time>2025-02-17T14:52:40.833Z</time>
      </trkpt>
      <trkpt lat="46.86143" lon="-1.01684">
        <ele>113.1</ele>
        <time>2025-02-17T14:52:42.282Z</time>
      </trkpt>
      <trkpt lat="46.86154" lon="-1.0167">
        <ele>113.5</ele>
        <time>2025-02-17T14:52:45.576Z</time>
      </trkpt>
      <trkpt lat="46.86213" lon="-1.01592">
        <ele>114.8</ele>
        <time>2025-02-17T14:53:01.492Z</time>
      </trkpt>
      <trkpt lat="46.86224" lon="-1.0158">
        <ele>115</ele>
        <time>2025-02-17T14:53:04.188Z</time>
      </trkpt>
      <trkpt lat="46.86231" lon="-1.01577">
        <ele>115</ele>
        <time>2025-02-17T14:53:05.427Z</time>
      </trkpt>
      <trkpt lat="46.86242" lon="-1.01579">
        <ele>115</ele>
        <time>2025-02-17T14:53:07.310Z</time>
      </trkpt>
      <trkpt lat="46.86266" lon="-1.0158">
        <ele>115.6</ele>
        <time>2025-02-17T14:53:12.586Z</time>
      </trkpt>
      <trkpt lat="46.86276" lon="-1.0158">
        <ele>115.9</ele>
        <time>2025-02-17T14:53:14.912Z</time>
      </trkpt>
      <trkpt lat="46.86279" lon="-1.01577">
        <ele>116</ele>
        <time>2025-02-17T14:53:15.734Z</time>
      </trkpt>
      <trkpt lat="46.86283" lon="-1.01561">
        <ele>116.2</ele>
        <time>2025-02-17T14:53:18.085Z</time>
      </trkpt>
      <trkpt lat="46.86289" lon="-1.01535">
        <ele>116.4</ele>
        <time>2025-02-17T14:53:21.625Z</time>
      </trkpt>
      <trkpt lat="46.86301" lon="-1.01446">
        <ele>116.8</ele>
        <time>2025-02-17T14:53:32.842Z</time>
        <extensions>
          <visugpx:TrkExtension xmlns:visugpx="https://www.visugpx.com/editgpx/">
            <visugpx:node>7</visugpx:node>
            </visugpx:TrkExtension>
        </extensions>
      </trkpt>
      <trkpt lat="46.86307" lon="-1.01407">
        <ele>117</ele>
        <time>2025-02-17T14:53:37.828Z</time>
      </trkpt>
      <trkpt lat="46.86325" lon="-1.01265">
        <ele>117.5</ele>
        <time>2025-02-17T14:53:55.443Z</time>
      </trkpt>
      <trkpt lat="46.8633" lon="-1.01249">
        <ele>118</ele>
        <time>2025-02-17T14:53:58.652Z</time>
      </trkpt>
      <trkpt lat="46.86327" lon="-1.01243">
        <ele>118</ele>
        <time>2025-02-17T14:53:59.515Z</time>
      </trkpt>
      <trkpt lat="46.86326" lon="-1.01236">
        <ele>118</ele>
        <time>2025-02-17T14:54:00.345Z</time>
      </trkpt>
      <trkpt lat="46.8633" lon="-1.01226">
        <ele>118</ele>
        <time>2025-02-17T14:54:01.691Z</time>
      </trkpt>
      <trkpt lat="46.86336" lon="-1.01224">
        <ele>118</ele>
        <time>2025-02-17T14:54:02.736Z</time>
      </trkpt>
      <trkpt lat="46.8634" lon="-1.01225">
        <ele>118</ele>
        <time>2025-02-17T14:54:03.426Z</time>
      </trkpt>
      <trkpt lat="46.86344" lon="-1.01231">
        <ele>118</ele>
        <time>2025-02-17T14:54:04.399Z</time>
      </trkpt>
      <trkpt lat="46.86357" lon="-1.01221">
        <ele>118</ele>
        <time>2025-02-17T14:54:06.894Z</time>
      </trkpt>
      <trkpt lat="46.8636" lon="-1.01214">
        <ele>118</ele>
        <time>2025-02-17T14:54:07.854Z</time>
      </trkpt>
      <trkpt lat="46.86362" lon="-1.01201">
        <ele>118</ele>
        <time>2025-02-17T14:54:09.401Z</time>
      </trkpt>
      <trkpt lat="46.86383" lon="-1.01024">
        <ele>119</ele>
        <time>2025-02-17T14:54:31.993Z</time>
      </trkpt>
      <trkpt lat="46.86388" lon="-1.01008">
        <ele>119</ele>
        <time>2025-02-17T14:54:34.036Z</time>
      </trkpt>
      <trkpt lat="46.86392" lon="-1.01">
        <ele>118.9</ele>
        <time>2025-02-17T14:54:35.043Z</time>
      </trkpt>
      <trkpt lat="46.86396" lon="-1.00986">
        <ele>118.9</ele>
        <time>2025-02-17T14:54:36.805Z</time>
      </trkpt>
      <trkpt lat="46.86402" lon="-1.00976">
        <ele>118.9</ele>
        <time>2025-02-17T14:54:38.350Z</time>
      </trkpt>
      <trkpt lat="46.86406" lon="-1.00964">
        <ele>118.8</ele>
        <time>2025-02-17T14:54:39.753Z</time>
      </trkpt>
      <trkpt lat="46.86416" lon="-1.00942">
        <ele>118.1</ele>
        <time>2025-02-17T14:54:41.970Z</time>
      </trkpt>
      <trkpt lat="46.86424" lon="-1.00931">
        <ele>118.4</ele>
        <time>2025-02-17T14:54:44.447Z</time>
      </trkpt>
      <trkpt lat="46.8647" lon="-1.00885">
        <ele>117.2</ele>
        <time>2025-02-17T14:54:52.268Z</time>
      </trkpt>
      <trkpt lat="46.86487" lon="-1.00868">
        <ele>116.8</ele>
        <time>2025-02-17T14:54:55.209Z</time>
      </trkpt>
      <trkpt lat="46.86522" lon="-1.00834">
        <ele>115.4</ele>
        <time>2025-02-17T14:55:00.581Z</time>
      </trkpt>
      <trkpt lat="46.86526" lon="-1.0083">
        <ele>115.2</ele>
        <time>2025-02-17T14:55:01.165Z</time>
      </trkpt>
      <trkpt lat="46.86548" lon="-1.00809">
        <ele>115.1</ele>
        <time>2025-02-17T14:55:05.471Z</time>
      </trkpt>
      <trkpt lat="46.86568" lon="-1.0079">
        <ele>114.6</ele>
        <time>2025-02-17T14:55:08.834Z</time>
      </trkpt>
      <trkpt lat="46.86657" lon="-1.00706">
        <ele>111.3</ele>
        <time>2025-02-17T14:55:22.601Z</time>
      </trkpt>
      <trkpt lat="46.86665" lon="-1.00703">
        <ele>111.1</ele>
        <time>2025-02-17T14:55:23.735Z</time>
      </trkpt>
      <trkpt lat="46.86699" lon="-1.00681">
        <ele>110</ele>
        <time>2025-02-17T14:55:28.627Z</time>
      </trkpt>
      <trkpt lat="46.86716" lon="-1.00673">
        <ele>110</ele>
        <time>2025-02-17T14:55:31.660Z</time>
      </trkpt>
      <trkpt lat="46.86714" lon="-1.00668">
        <ele>110</ele>
        <time>2025-02-17T14:55:32.333Z</time>
      </trkpt>
      <trkpt lat="46.86704" lon="-1.00658">
        <ele>110</ele>
        <time>2025-02-17T14:55:34.391Z</time>
      </trkpt>
      <trkpt lat="46.86685" lon="-1.00653">
        <ele>110.3</ele>
        <time>2025-02-17T14:55:38.222Z</time>
      </trkpt>
      <trkpt lat="46.86635" lon="-1.00639">
        <ele>111.1</ele>
        <time>2025-02-17T14:55:48.342Z</time>
        <extensions>
          <visugpx:TrkExtension xmlns:visugpx="https://www.visugpx.com/editgpx/">
            <visugpx:node>8</visugpx:node>
            </visugpx:TrkExtension>
        </extensions>
      </trkpt>
      <trkpt lat="46.86608" lon="-1.00631">
        <ele>112.2</ele>
        <time>2025-02-17T14:55:55.545Z</time>
      </trkpt>
      <trkpt lat="46.8659" lon="-1.00625">
        <ele>113.1</ele>
        <time>2025-02-17T14:56:00.929Z</time>
      </trkpt>
      <trkpt lat="46.86569" lon="-1.00612">
        <ele>114.1</ele>
        <time>2025-02-17T14:56:07.185Z</time>
      </trkpt>
      <trkpt lat="46.86555" lon="-1.00602">
        <ele>114.7</ele>
        <time>2025-02-17T14:56:11.189Z</time>
      </trkpt>
      <trkpt lat="46.86535" lon="-1.00588">
        <ele>114.4</ele>
        <time>2025-02-17T14:56:14.519Z</time>
      </trkpt>
      <trkpt lat="46.86525" lon="-1.00581">
        <ele>114.4</ele>
        <time>2025-02-17T14:56:16.403Z</time>
        <extensions>
          <visugpx:TrkExtension xmlns:visugpx="https://www.visugpx.com/editgpx/">
            <visugpx:node>9</visugpx:node>
            </visugpx:TrkExtension>
        </extensions>
      </trkpt>
      <trkpt lat="46.8652" lon="-1.00578">
        <ele>114.9</ele>
        <time>2025-02-17T14:56:19.227Z</time>
      </trkpt>
      <trkpt lat="46.86507" lon="-1.00572">
        <ele>116.3</ele>
        <time>2025-02-17T14:56:27.296Z</time>
        <extensions>
          <visugpx:TrkExtension xmlns:visugpx="https://www.visugpx.com/editgpx/">
            <visugpx:node>10</visugpx:node>
            </visugpx:TrkExtension>
        </extensions>
      </trkpt>
      <trkpt lat="46.86465" lon="-1.00564">
        <ele>117.5</ele>
        <time>2025-02-17T14:56:36.949Z</time>
      </trkpt>
      <trkpt lat="46.86425" lon="-1.00561">
        <ele>118.9</ele>
        <time>2025-02-17T14:56:46.832Z</time>
      </trkpt>
      <trkpt lat="46.86392" lon="-1.00555">
        <ele>119</ele>
        <time>2025-02-17T14:56:52.646Z</time>
      </trkpt>
      <trkpt lat="46.86371" lon="-1.00573">
        <ele>119.2</ele>
        <time>2025-02-17T14:56:57.157Z</time>
      </trkpt>
      <trkpt lat="46.86351" lon="-1.00599">
        <ele>119</ele>
        <time>2025-02-17T14:57:01.308Z</time>
      </trkpt>
      <trkpt lat="46.863" lon="-1.00645">
        <ele>117.4</ele>
        <time>2025-02-17T14:57:09.429Z</time>
        <extensions>
          <visugpx:TrkExtension xmlns:visugpx="https://www.visugpx.com/editgpx/">
            <visugpx:node>11</visugpx:node>
            </visugpx:TrkExtension>
        </extensions>
      </trkpt>
    </trkseg>
  </trk>
</gpx>